<?xml version="1.0" encoding="UTF-8" standalone="no" ?>
<gpx xmlns="http://www.topografix.com/GPX/1/1" xmlns:xsi="http://www.w3.org/2001/XMLSchema-instance" xsi:schemaLocation="http://www.topografix.com/GPX/1/1 http://www.topografix.com/GPX/1/1/gpx.xsd" version="1.1" creator="VisuGPX - https://www.visugpx.com">
  <metadata>
    <name>83-D-Barjols</name>
    <desc><![CDATA[83-D-Barjols : de Barjols à Pontéves - vallon des Carmes]]></desc>
  </metadata>
  <trk>
    <name><![CDATA[2017-01-08-D-barjols]]></name>
    <trkseg>
      <trkpt lat="43.55859" lon="6.00463">
        <ele>266.9</ele>
        <time>2017-01-08T09:27:48Z</time>
      </trkpt>
      <trkpt lat="43.55859" lon="6.00463">
        <ele>266.9</ele>
        <time>2017-01-08T09:27:49Z</time>
      </trkpt>
      <trkpt lat="43.55853" lon="6.00474">
        <ele>264.7</ele>
        <time>2017-01-08T09:29:40Z</time>
      </trkpt>
      <trkpt lat="43.5585" lon="6.00486">
        <ele>264.7</ele>
        <time>2017-01-08T09:29:55Z</time>
      </trkpt>
      <trkpt lat="43.55848" lon="6.00498">
        <ele>264.7</ele>
        <time>2017-01-08T09:30:03Z</time>
      </trkpt>
      <trkpt lat="43.55853" lon="6.0051">
        <ele>264.7</ele>
        <time>2017-01-08T09:30:15Z</time>
      </trkpt>
      <trkpt lat="43.55858" lon="6.00521">
        <ele>264.8</ele>
        <time>2017-01-08T09:30:24Z</time>
      </trkpt>
      <trkpt lat="43.55856" lon="6.00533">
        <ele>264.7</ele>
        <time>2017-01-08T09:30:36Z</time>
      </trkpt>
      <trkpt lat="43.55856" lon="6.00546">
        <ele>264.6</ele>
        <time>2017-01-08T09:30:46Z</time>
      </trkpt>
      <trkpt lat="43.55849" lon="6.00555">
        <ele>264.4</ele>
        <time>2017-01-08T09:30:58Z</time>
      </trkpt>
      <trkpt lat="43.55841" lon="6.00563">
        <ele>264.3</ele>
        <time>2017-01-08T09:31:07Z</time>
      </trkpt>
      <trkpt lat="43.55834" lon="6.00571">
        <ele>264.2</ele>
        <time>2017-01-08T09:31:17Z</time>
      </trkpt>
      <trkpt lat="43.55826" lon="6.00577">
        <ele>264.1</ele>
        <time>2017-01-08T09:31:32Z</time>
      </trkpt>
      <trkpt lat="43.55817" lon="6.00583">
        <ele>263.9</ele>
        <time>2017-01-08T09:32:04Z</time>
      </trkpt>
      <trkpt lat="43.55811" lon="6.00592">
        <ele>264</ele>
        <time>2017-01-08T09:32:36Z</time>
      </trkpt>
      <trkpt lat="43.55802" lon="6.00595">
        <ele>264.9</ele>
        <time>2017-01-08T09:32:56Z</time>
      </trkpt>
      <trkpt lat="43.55799" lon="6.00607">
        <ele>265.7</ele>
        <time>2017-01-08T09:33:26Z</time>
      </trkpt>
      <trkpt lat="43.55805" lon="6.00617">
        <ele>266.1</ele>
        <time>2017-01-08T09:33:34Z</time>
      </trkpt>
      <trkpt lat="43.55812" lon="6.00626">
        <ele>266.9</ele>
        <time>2017-01-08T09:33:42Z</time>
      </trkpt>
      <trkpt lat="43.55819" lon="6.00635">
        <ele>268</ele>
        <time>2017-01-08T09:33:52Z</time>
      </trkpt>
      <trkpt lat="43.55823" lon="6.00647">
        <ele>269.5</ele>
        <time>2017-01-08T09:34:03Z</time>
      </trkpt>
      <trkpt lat="43.55825" lon="6.00661">
        <ele>271.3</ele>
        <time>2017-01-08T09:34:20Z</time>
      </trkpt>
      <trkpt lat="43.55827" lon="6.00673">
        <ele>272.2</ele>
        <time>2017-01-08T09:34:29Z</time>
      </trkpt>
      <trkpt lat="43.55834" lon="6.00682">
        <ele>273.7</ele>
        <time>2017-01-08T09:34:40Z</time>
      </trkpt>
      <trkpt lat="43.55832" lon="6.00695">
        <ele>274.8</ele>
        <time>2017-01-08T09:34:49Z</time>
      </trkpt>
      <trkpt lat="43.55833" lon="6.00707">
        <ele>276.2</ele>
        <time>2017-01-08T09:34:59Z</time>
      </trkpt>
      <trkpt lat="43.55828" lon="6.00718">
        <ele>277.6</ele>
        <time>2017-01-08T09:35:12Z</time>
      </trkpt>
      <trkpt lat="43.5583" lon="6.0073">
        <ele>278.8</ele>
        <time>2017-01-08T09:35:22Z</time>
      </trkpt>
      <trkpt lat="43.55832" lon="6.00743">
        <ele>281</ele>
        <time>2017-01-08T09:35:34Z</time>
      </trkpt>
      <trkpt lat="43.55832" lon="6.00756">
        <ele>283.8</ele>
        <time>2017-01-08T09:35:51Z</time>
      </trkpt>
      <trkpt lat="43.55842" lon="6.00759">
        <ele>285.7</ele>
        <time>2017-01-08T09:36:05Z</time>
      </trkpt>
      <trkpt lat="43.55849" lon="6.00751">
        <ele>289.7</ele>
        <time>2017-01-08T09:36:42Z</time>
      </trkpt>
      <trkpt lat="43.55859" lon="6.00747">
        <ele>290.8</ele>
        <time>2017-01-08T09:36:54Z</time>
      </trkpt>
      <trkpt lat="43.55868" lon="6.00744">
        <ele>292.6</ele>
        <time>2017-01-08T09:37:06Z</time>
      </trkpt>
      <trkpt lat="43.55877" lon="6.0075">
        <ele>295.9</ele>
        <time>2017-01-08T09:37:25Z</time>
      </trkpt>
      <trkpt lat="43.55883" lon="6.00759">
        <ele>297.8</ele>
        <time>2017-01-08T09:37:36Z</time>
      </trkpt>
      <trkpt lat="43.55892" lon="6.00765">
        <ele>299.9</ele>
        <time>2017-01-08T09:37:51Z</time>
      </trkpt>
      <trkpt lat="43.55896" lon="6.00776">
        <ele>301.9</ele>
        <time>2017-01-08T09:38:10Z</time>
      </trkpt>
      <trkpt lat="43.55897" lon="6.00788">
        <ele>303.5</ele>
        <time>2017-01-08T09:38:30Z</time>
      </trkpt>
      <trkpt lat="43.55898" lon="6.00802">
        <ele>304.3</ele>
        <time>2017-01-08T09:38:40Z</time>
      </trkpt>
      <trkpt lat="43.55901" lon="6.00814">
        <ele>305.1</ele>
        <time>2017-01-08T09:38:49Z</time>
      </trkpt>
      <trkpt lat="43.55908" lon="6.00824">
        <ele>306.5</ele>
        <time>2017-01-08T09:39:03Z</time>
      </trkpt>
      <trkpt lat="43.55902" lon="6.00835">
        <ele>308.2</ele>
        <time>2017-01-08T09:40:43Z</time>
      </trkpt>
      <trkpt lat="43.55894" lon="6.00844">
        <ele>308.2</ele>
        <time>2017-01-08T09:40:52Z</time>
      </trkpt>
      <trkpt lat="43.55887" lon="6.00853">
        <ele>308</ele>
        <time>2017-01-08T09:41:01Z</time>
      </trkpt>
      <trkpt lat="43.55881" lon="6.00863">
        <ele>307.9</ele>
        <time>2017-01-08T09:41:09Z</time>
      </trkpt>
      <trkpt lat="43.55874" lon="6.00873">
        <ele>307.8</ele>
        <time>2017-01-08T09:41:18Z</time>
      </trkpt>
      <trkpt lat="43.55868" lon="6.00882">
        <ele>307.8</ele>
        <time>2017-01-08T09:41:25Z</time>
      </trkpt>
      <trkpt lat="43.55862" lon="6.00894">
        <ele>307.5</ele>
        <time>2017-01-08T09:41:33Z</time>
      </trkpt>
      <trkpt lat="43.55857" lon="6.00906">
        <ele>307.4</ele>
        <time>2017-01-08T09:41:39Z</time>
      </trkpt>
      <trkpt lat="43.55857" lon="6.00919">
        <ele>307.2</ele>
        <time>2017-01-08T09:41:49Z</time>
      </trkpt>
      <trkpt lat="43.55862" lon="6.00932">
        <ele>307.1</ele>
        <time>2017-01-08T09:41:55Z</time>
      </trkpt>
      <trkpt lat="43.55867" lon="6.00944">
        <ele>306.7</ele>
        <time>2017-01-08T09:42:01Z</time>
      </trkpt>
      <trkpt lat="43.55871" lon="6.00956">
        <ele>306.2</ele>
        <time>2017-01-08T09:42:08Z</time>
      </trkpt>
      <trkpt lat="43.5587" lon="6.0097">
        <ele>305.9</ele>
        <time>2017-01-08T09:42:13Z</time>
      </trkpt>
      <trkpt lat="43.55867" lon="6.00982">
        <ele>305.5</ele>
        <time>2017-01-08T09:42:21Z</time>
      </trkpt>
      <trkpt lat="43.55863" lon="6.00994">
        <ele>305.2</ele>
        <time>2017-01-08T09:42:28Z</time>
      </trkpt>
      <trkpt lat="43.55854" lon="6.00997">
        <ele>305</ele>
        <time>2017-01-08T09:42:38Z</time>
      </trkpt>
      <trkpt lat="43.55848" lon="6.00987">
        <ele>304.6</ele>
        <time>2017-01-08T09:42:49Z</time>
      </trkpt>
      <trkpt lat="43.55838" lon="6.00984">
        <ele>304</ele>
        <time>2017-01-08T09:42:56Z</time>
      </trkpt>
      <trkpt lat="43.55836" lon="6.00997">
        <ele>303.2</ele>
        <time>2017-01-08T09:43:04Z</time>
      </trkpt>
      <trkpt lat="43.55835" lon="6.01011">
        <ele>302.9</ele>
        <time>2017-01-08T09:43:13Z</time>
      </trkpt>
      <trkpt lat="43.55834" lon="6.01024">
        <ele>303.4</ele>
        <time>2017-01-08T09:43:22Z</time>
      </trkpt>
      <trkpt lat="43.55832" lon="6.01037">
        <ele>304</ele>
        <time>2017-01-08T09:43:29Z</time>
      </trkpt>
      <trkpt lat="43.55832" lon="6.0105">
        <ele>304.8</ele>
        <time>2017-01-08T09:43:39Z</time>
      </trkpt>
      <trkpt lat="43.55832" lon="6.01062">
        <ele>305.3</ele>
        <time>2017-01-08T09:43:46Z</time>
      </trkpt>
      <trkpt lat="43.55833" lon="6.01075">
        <ele>306.1</ele>
        <time>2017-01-08T09:43:55Z</time>
      </trkpt>
      <trkpt lat="43.55837" lon="6.01087">
        <ele>306.7</ele>
        <time>2017-01-08T09:44:03Z</time>
      </trkpt>
      <trkpt lat="43.55839" lon="6.011">
        <ele>307.2</ele>
        <time>2017-01-08T09:44:12Z</time>
      </trkpt>
      <trkpt lat="43.55842" lon="6.01113">
        <ele>308</ele>
        <time>2017-01-08T09:44:22Z</time>
      </trkpt>
      <trkpt lat="43.55844" lon="6.01126">
        <ele>308.7</ele>
        <time>2017-01-08T09:44:32Z</time>
      </trkpt>
      <trkpt lat="43.55848" lon="6.01139">
        <ele>309.5</ele>
        <time>2017-01-08T09:44:43Z</time>
      </trkpt>
      <trkpt lat="43.55846" lon="6.01152">
        <ele>310.9</ele>
        <time>2017-01-08T09:44:56Z</time>
      </trkpt>
      <trkpt lat="43.55849" lon="6.01164">
        <ele>311.3</ele>
        <time>2017-01-08T09:45:03Z</time>
      </trkpt>
      <trkpt lat="43.55851" lon="6.01177">
        <ele>311.9</ele>
        <time>2017-01-08T09:45:14Z</time>
      </trkpt>
      <trkpt lat="43.5585" lon="6.0119">
        <ele>313</ele>
        <time>2017-01-08T09:45:26Z</time>
      </trkpt>
      <trkpt lat="43.55853" lon="6.01203">
        <ele>314.2</ele>
        <time>2017-01-08T09:45:39Z</time>
      </trkpt>
      <trkpt lat="43.55855" lon="6.01216">
        <ele>315.3</ele>
        <time>2017-01-08T09:45:48Z</time>
      </trkpt>
      <trkpt lat="43.55855" lon="6.01229">
        <ele>316.7</ele>
        <time>2017-01-08T09:46:01Z</time>
      </trkpt>
      <trkpt lat="43.55853" lon="6.01241">
        <ele>318.5</ele>
        <time>2017-01-08T09:46:14Z</time>
      </trkpt>
      <trkpt lat="43.55852" lon="6.01254">
        <ele>320.7</ele>
        <time>2017-01-08T09:46:29Z</time>
      </trkpt>
      <trkpt lat="43.55856" lon="6.01265">
        <ele>322.5</ele>
        <time>2017-01-08T09:46:47Z</time>
      </trkpt>
      <trkpt lat="43.55863" lon="6.01275">
        <ele>324.7</ele>
        <time>2017-01-08T09:47:21Z</time>
      </trkpt>
      <trkpt lat="43.55855" lon="6.01282">
        <ele>325.8</ele>
        <time>2017-01-08T09:47:42Z</time>
      </trkpt>
      <trkpt lat="43.55845" lon="6.0128">
        <ele>326.2</ele>
        <time>2017-01-08T09:47:51Z</time>
      </trkpt>
      <trkpt lat="43.55836" lon="6.0128">
        <ele>326.4</ele>
        <time>2017-01-08T09:48:00Z</time>
      </trkpt>
      <trkpt lat="43.55827" lon="6.01278">
        <ele>326.9</ele>
        <time>2017-01-08T09:48:09Z</time>
      </trkpt>
      <trkpt lat="43.55818" lon="6.01281">
        <ele>327.7</ele>
        <time>2017-01-08T09:48:18Z</time>
      </trkpt>
      <trkpt lat="43.5581" lon="6.01287">
        <ele>328.7</ele>
        <time>2017-01-08T09:48:28Z</time>
      </trkpt>
      <trkpt lat="43.55801" lon="6.01292">
        <ele>329.9</ele>
        <time>2017-01-08T09:48:39Z</time>
      </trkpt>
      <trkpt lat="43.55792" lon="6.01292">
        <ele>330.5</ele>
        <time>2017-01-08T09:48:50Z</time>
      </trkpt>
      <trkpt lat="43.55784" lon="6.01299">
        <ele>330.9</ele>
        <time>2017-01-08T09:48:58Z</time>
      </trkpt>
      <trkpt lat="43.55778" lon="6.01308">
        <ele>331.3</ele>
        <time>2017-01-08T09:49:07Z</time>
      </trkpt>
      <trkpt lat="43.5577" lon="6.01314">
        <ele>331.7</ele>
        <time>2017-01-08T09:49:14Z</time>
      </trkpt>
      <trkpt lat="43.55763" lon="6.01321">
        <ele>332</ele>
        <time>2017-01-08T09:49:23Z</time>
      </trkpt>
      <trkpt lat="43.55756" lon="6.0133">
        <ele>332.3</ele>
        <time>2017-01-08T09:49:30Z</time>
      </trkpt>
      <trkpt lat="43.55747" lon="6.01336">
        <ele>332.5</ele>
        <time>2017-01-08T09:49:38Z</time>
      </trkpt>
      <trkpt lat="43.55743" lon="6.01347">
        <ele>332.6</ele>
        <time>2017-01-08T09:49:46Z</time>
      </trkpt>
      <trkpt lat="43.5574" lon="6.0136">
        <ele>332.7</ele>
        <time>2017-01-08T09:49:53Z</time>
      </trkpt>
      <trkpt lat="43.55736" lon="6.01371">
        <ele>332.6</ele>
        <time>2017-01-08T09:50:00Z</time>
      </trkpt>
      <trkpt lat="43.55729" lon="6.01382">
        <ele>332.5</ele>
        <time>2017-01-08T09:50:09Z</time>
      </trkpt>
      <trkpt lat="43.55721" lon="6.01385">
        <ele>332.5</ele>
        <time>2017-01-08T09:50:18Z</time>
      </trkpt>
      <trkpt lat="43.55712" lon="6.01387">
        <ele>332.5</ele>
        <time>2017-01-08T09:50:38Z</time>
      </trkpt>
      <trkpt lat="43.55702" lon="6.01386">
        <ele>332.5</ele>
        <time>2017-01-08T09:50:48Z</time>
      </trkpt>
      <trkpt lat="43.55707" lon="6.01375">
        <ele>328.8</ele>
        <time>2017-01-08T09:53:13Z</time>
      </trkpt>
      <trkpt lat="43.5571" lon="6.01363">
        <ele>327.4</ele>
        <time>2017-01-08T09:53:30Z</time>
      </trkpt>
      <trkpt lat="43.55712" lon="6.01351">
        <ele>326.1</ele>
        <time>2017-01-08T09:53:47Z</time>
      </trkpt>
      <trkpt lat="43.55711" lon="6.01338">
        <ele>323.9</ele>
        <time>2017-01-08T09:54:15Z</time>
      </trkpt>
      <trkpt lat="43.55706" lon="6.01327">
        <ele>322</ele>
        <time>2017-01-08T09:54:36Z</time>
      </trkpt>
      <trkpt lat="43.55706" lon="6.0134">
        <ele>321.4</ele>
        <time>2017-01-08T09:54:59Z</time>
      </trkpt>
      <trkpt lat="43.55709" lon="6.01352">
        <ele>324.6</ele>
        <time>2017-01-08T09:56:31Z</time>
      </trkpt>
      <trkpt lat="43.55713" lon="6.01363">
        <ele>325.5</ele>
        <time>2017-01-08T09:56:53Z</time>
      </trkpt>
      <trkpt lat="43.55721" lon="6.01371">
        <ele>323.3</ele>
        <time>2017-01-08T09:57:43Z</time>
      </trkpt>
      <trkpt lat="43.55717" lon="6.01383">
        <ele>320.7</ele>
        <time>2017-01-08T09:59:54Z</time>
      </trkpt>
      <trkpt lat="43.55708" lon="6.01381">
        <ele>320.7</ele>
        <time>2017-01-08T10:00:04Z</time>
      </trkpt>
      <trkpt lat="43.55717" lon="6.01376">
        <ele>320.9</ele>
        <time>2017-01-08T10:00:20Z</time>
      </trkpt>
      <trkpt lat="43.55725" lon="6.01369">
        <ele>322.1</ele>
        <time>2017-01-08T10:00:35Z</time>
      </trkpt>
      <trkpt lat="43.55717" lon="6.01362">
        <ele>323</ele>
        <time>2017-01-08T10:00:59Z</time>
      </trkpt>
      <trkpt lat="43.55703" lon="6.0135">
        <ele>323.5</ele>
        <time>2017-01-08T10:01:31Z</time>
      </trkpt>
      <trkpt lat="43.5571" lon="6.01361">
        <ele>323</ele>
        <time>2017-01-08T10:01:46Z</time>
      </trkpt>
      <trkpt lat="43.55723" lon="6.0137">
        <ele>323</ele>
        <time>2017-01-08T10:02:02Z</time>
      </trkpt>
      <trkpt lat="43.55719" lon="6.01358">
        <ele>324.9</ele>
        <time>2017-01-08T10:02:24Z</time>
      </trkpt>
      <trkpt lat="43.5571" lon="6.01358">
        <ele>325.8</ele>
        <time>2017-01-08T10:02:36Z</time>
      </trkpt>
      <trkpt lat="43.55705" lon="6.01368">
        <ele>326.8</ele>
        <time>2017-01-08T10:02:52Z</time>
      </trkpt>
      <trkpt lat="43.55696" lon="6.01366">
        <ele>327.2</ele>
        <time>2017-01-08T10:03:08Z</time>
      </trkpt>
      <trkpt lat="43.55687" lon="6.01368">
        <ele>326.1</ele>
        <time>2017-01-08T10:03:26Z</time>
      </trkpt>
      <trkpt lat="43.55674" lon="6.01364">
        <ele>324.2</ele>
        <time>2017-01-08T10:08:08Z</time>
      </trkpt>
      <trkpt lat="43.55684" lon="6.01378">
        <ele>323</ele>
        <time>2017-01-08T10:08:22Z</time>
      </trkpt>
      <trkpt lat="43.55702" lon="6.01391">
        <ele>323</ele>
        <time>2017-01-08T10:09:16Z</time>
      </trkpt>
      <trkpt lat="43.55686" lon="6.01385">
        <ele>323.2</ele>
        <time>2017-01-08T10:09:19Z</time>
      </trkpt>
      <trkpt lat="43.55677" lon="6.01386">
        <ele>323.2</ele>
        <time>2017-01-08T10:09:23Z</time>
      </trkpt>
      <trkpt lat="43.55677" lon="6.01373">
        <ele>323.4</ele>
        <time>2017-01-08T10:09:55Z</time>
      </trkpt>
      <trkpt lat="43.5567" lon="6.01384">
        <ele>323.7</ele>
        <time>2017-01-08T10:10:12Z</time>
      </trkpt>
      <trkpt lat="43.55662" lon="6.01377">
        <ele>323.5</ele>
        <time>2017-01-08T10:10:31Z</time>
      </trkpt>
      <trkpt lat="43.55655" lon="6.01368">
        <ele>322</ele>
        <time>2017-01-08T10:10:45Z</time>
      </trkpt>
      <trkpt lat="43.55646" lon="6.01365">
        <ele>321.5</ele>
        <time>2017-01-08T10:10:55Z</time>
      </trkpt>
      <trkpt lat="43.55637" lon="6.01365">
        <ele>317.1</ele>
        <time>2017-01-08T10:11:16Z</time>
      </trkpt>
      <trkpt lat="43.55628" lon="6.0136">
        <ele>313.7</ele>
        <time>2017-01-08T10:11:37Z</time>
      </trkpt>
      <trkpt lat="43.55622" lon="6.0137">
        <ele>315.1</ele>
        <time>2017-01-08T10:12:15Z</time>
      </trkpt>
      <trkpt lat="43.55613" lon="6.01364">
        <ele>316</ele>
        <time>2017-01-08T10:12:34Z</time>
      </trkpt>
      <trkpt lat="43.5561" lon="6.01377">
        <ele>321.4</ele>
        <time>2017-01-08T10:13:35Z</time>
      </trkpt>
      <trkpt lat="43.55614" lon="6.01388">
        <ele>322.9</ele>
        <time>2017-01-08T10:14:07Z</time>
      </trkpt>
      <trkpt lat="43.55605" lon="6.01384">
        <ele>327.4</ele>
        <time>2017-01-08T10:14:48Z</time>
      </trkpt>
      <trkpt lat="43.55596" lon="6.01386">
        <ele>331.5</ele>
        <time>2017-01-08T10:15:09Z</time>
      </trkpt>
      <trkpt lat="43.55589" lon="6.01394">
        <ele>334.2</ele>
        <time>2017-01-08T10:15:24Z</time>
      </trkpt>
      <trkpt lat="43.55591" lon="6.01407">
        <ele>337.1</ele>
        <time>2017-01-08T10:15:41Z</time>
      </trkpt>
      <trkpt lat="43.55595" lon="6.01419">
        <ele>345.8</ele>
        <time>2017-01-08T10:16:47Z</time>
      </trkpt>
      <trkpt lat="43.55586" lon="6.01416">
        <ele>347.8</ele>
        <time>2017-01-08T10:17:08Z</time>
      </trkpt>
      <trkpt lat="43.55583" lon="6.01429">
        <ele>350.1</ele>
        <time>2017-01-08T10:17:29Z</time>
      </trkpt>
      <trkpt lat="43.55575" lon="6.01433">
        <ele>353.6</ele>
        <time>2017-01-08T10:17:55Z</time>
      </trkpt>
      <trkpt lat="43.55566" lon="6.01428">
        <ele>356.4</ele>
        <time>2017-01-08T10:18:44Z</time>
      </trkpt>
      <trkpt lat="43.55565" lon="6.01415">
        <ele>358.6</ele>
        <time>2017-01-08T10:19:11Z</time>
      </trkpt>
      <trkpt lat="43.55557" lon="6.0141">
        <ele>361.2</ele>
        <time>2017-01-08T10:19:33Z</time>
      </trkpt>
      <trkpt lat="43.55551" lon="6.014">
        <ele>362.8</ele>
        <time>2017-01-08T10:19:47Z</time>
      </trkpt>
      <trkpt lat="43.55552" lon="6.01387">
        <ele>364.6</ele>
        <time>2017-01-08T10:20:04Z</time>
      </trkpt>
      <trkpt lat="43.55551" lon="6.01375">
        <ele>367.1</ele>
        <time>2017-01-08T10:20:25Z</time>
      </trkpt>
      <trkpt lat="43.55547" lon="6.01364">
        <ele>369.1</ele>
        <time>2017-01-08T10:20:44Z</time>
      </trkpt>
      <trkpt lat="43.55543" lon="6.01352">
        <ele>369.7</ele>
        <time>2017-01-08T10:20:58Z</time>
      </trkpt>
      <trkpt lat="43.55541" lon="6.0134">
        <ele>369.5</ele>
        <time>2017-01-08T10:21:13Z</time>
      </trkpt>
      <trkpt lat="43.55541" lon="6.01326">
        <ele>369</ele>
        <time>2017-01-08T10:21:24Z</time>
      </trkpt>
      <trkpt lat="43.55542" lon="6.01313">
        <ele>368.5</ele>
        <time>2017-01-08T10:21:36Z</time>
      </trkpt>
      <trkpt lat="43.55543" lon="6.013">
        <ele>367.9</ele>
        <time>2017-01-08T10:21:48Z</time>
      </trkpt>
      <trkpt lat="43.55551" lon="6.01293">
        <ele>367</ele>
        <time>2017-01-08T10:22:26Z</time>
      </trkpt>
      <trkpt lat="43.55545" lon="6.01303">
        <ele>368</ele>
        <time>2017-01-08T10:24:27Z</time>
      </trkpt>
      <trkpt lat="43.55554" lon="6.01301">
        <ele>369.9</ele>
        <time>2017-01-08T10:30:51Z</time>
      </trkpt>
      <trkpt lat="43.55546" lon="6.01294">
        <ele>370</ele>
        <time>2017-01-08T10:34:10Z</time>
      </trkpt>
      <trkpt lat="43.55541" lon="6.01305">
        <ele>369.1</ele>
        <time>2017-01-08T10:36:17Z</time>
      </trkpt>
      <trkpt lat="43.5554" lon="6.01317">
        <ele>369.1</ele>
        <time>2017-01-08T10:37:23Z</time>
      </trkpt>
      <trkpt lat="43.55539" lon="6.0133">
        <ele>369.2</ele>
        <time>2017-01-08T10:37:30Z</time>
      </trkpt>
      <trkpt lat="43.55536" lon="6.01342">
        <ele>369.6</ele>
        <time>2017-01-08T10:37:39Z</time>
      </trkpt>
      <trkpt lat="43.55535" lon="6.01356">
        <ele>370.5</ele>
        <time>2017-01-08T10:37:48Z</time>
      </trkpt>
      <trkpt lat="43.55533" lon="6.01368">
        <ele>371</ele>
        <time>2017-01-08T10:37:57Z</time>
      </trkpt>
      <trkpt lat="43.5553" lon="6.01381">
        <ele>371.7</ele>
        <time>2017-01-08T10:38:07Z</time>
      </trkpt>
      <trkpt lat="43.55526" lon="6.01392">
        <ele>372.4</ele>
        <time>2017-01-08T10:38:16Z</time>
      </trkpt>
      <trkpt lat="43.55523" lon="6.01406">
        <ele>373.4</ele>
        <time>2017-01-08T10:38:25Z</time>
      </trkpt>
      <trkpt lat="43.55518" lon="6.01417">
        <ele>374.1</ele>
        <time>2017-01-08T10:38:35Z</time>
      </trkpt>
      <trkpt lat="43.55514" lon="6.01429">
        <ele>375.3</ele>
        <time>2017-01-08T10:38:46Z</time>
      </trkpt>
      <trkpt lat="43.55508" lon="6.01439">
        <ele>376.8</ele>
        <time>2017-01-08T10:38:59Z</time>
      </trkpt>
      <trkpt lat="43.55503" lon="6.0145">
        <ele>378.1</ele>
        <time>2017-01-08T10:39:11Z</time>
      </trkpt>
      <trkpt lat="43.55497" lon="6.0146">
        <ele>379.3</ele>
        <time>2017-01-08T10:39:24Z</time>
      </trkpt>
      <trkpt lat="43.55491" lon="6.01469">
        <ele>380.9</ele>
        <time>2017-01-08T10:39:36Z</time>
      </trkpt>
      <trkpt lat="43.55486" lon="6.01481">
        <ele>382.1</ele>
        <time>2017-01-08T10:39:49Z</time>
      </trkpt>
      <trkpt lat="43.55481" lon="6.01492">
        <ele>382.9</ele>
        <time>2017-01-08T10:40:00Z</time>
      </trkpt>
      <trkpt lat="43.55475" lon="6.01503">
        <ele>383.9</ele>
        <time>2017-01-08T10:40:12Z</time>
      </trkpt>
      <trkpt lat="43.5547" lon="6.01514">
        <ele>385.4</ele>
        <time>2017-01-08T10:40:24Z</time>
      </trkpt>
      <trkpt lat="43.55466" lon="6.01525">
        <ele>386.2</ele>
        <time>2017-01-08T10:40:35Z</time>
      </trkpt>
      <trkpt lat="43.55461" lon="6.01535">
        <ele>387.1</ele>
        <time>2017-01-08T10:40:46Z</time>
      </trkpt>
      <trkpt lat="43.55455" lon="6.01545">
        <ele>387.6</ele>
        <time>2017-01-08T10:40:57Z</time>
      </trkpt>
      <trkpt lat="43.55446" lon="6.01551">
        <ele>388.6</ele>
        <time>2017-01-08T10:41:08Z</time>
      </trkpt>
      <trkpt lat="43.55437" lon="6.01551">
        <ele>389.7</ele>
        <time>2017-01-08T10:41:18Z</time>
      </trkpt>
      <trkpt lat="43.55427" lon="6.01553">
        <ele>390.5</ele>
        <time>2017-01-08T10:41:28Z</time>
      </trkpt>
      <trkpt lat="43.5542" lon="6.01562">
        <ele>391.3</ele>
        <time>2017-01-08T10:41:39Z</time>
      </trkpt>
      <trkpt lat="43.55414" lon="6.01572">
        <ele>391.9</ele>
        <time>2017-01-08T10:41:48Z</time>
      </trkpt>
      <trkpt lat="43.5541" lon="6.01585">
        <ele>392.7</ele>
        <time>2017-01-08T10:41:57Z</time>
      </trkpt>
      <trkpt lat="43.55403" lon="6.01594">
        <ele>393.4</ele>
        <time>2017-01-08T10:42:06Z</time>
      </trkpt>
      <trkpt lat="43.55399" lon="6.01605">
        <ele>393.8</ele>
        <time>2017-01-08T10:42:15Z</time>
      </trkpt>
      <trkpt lat="43.55394" lon="6.01616">
        <ele>394.2</ele>
        <time>2017-01-08T10:42:24Z</time>
      </trkpt>
      <trkpt lat="43.55389" lon="6.01628">
        <ele>394.5</ele>
        <time>2017-01-08T10:42:33Z</time>
      </trkpt>
      <trkpt lat="43.55384" lon="6.01638">
        <ele>394.7</ele>
        <time>2017-01-08T10:42:41Z</time>
      </trkpt>
      <trkpt lat="43.55378" lon="6.01649">
        <ele>394.8</ele>
        <time>2017-01-08T10:42:50Z</time>
      </trkpt>
      <trkpt lat="43.55372" lon="6.01659">
        <ele>395.2</ele>
        <time>2017-01-08T10:42:59Z</time>
      </trkpt>
      <trkpt lat="43.55368" lon="6.01671">
        <ele>395.8</ele>
        <time>2017-01-08T10:43:08Z</time>
      </trkpt>
      <trkpt lat="43.55362" lon="6.01681">
        <ele>396.3</ele>
        <time>2017-01-08T10:43:16Z</time>
      </trkpt>
      <trkpt lat="43.55357" lon="6.01692">
        <ele>396.8</ele>
        <time>2017-01-08T10:43:26Z</time>
      </trkpt>
      <trkpt lat="43.55352" lon="6.01702">
        <ele>397.4</ele>
        <time>2017-01-08T10:43:35Z</time>
      </trkpt>
      <trkpt lat="43.55347" lon="6.01713">
        <ele>398.2</ele>
        <time>2017-01-08T10:43:44Z</time>
      </trkpt>
      <trkpt lat="43.55343" lon="6.01724">
        <ele>399.3</ele>
        <time>2017-01-08T10:43:54Z</time>
      </trkpt>
      <trkpt lat="43.55335" lon="6.01733">
        <ele>400</ele>
        <time>2017-01-08T10:44:03Z</time>
      </trkpt>
      <trkpt lat="43.5533" lon="6.01745">
        <ele>401.6</ele>
        <time>2017-01-08T10:44:13Z</time>
      </trkpt>
      <trkpt lat="43.55325" lon="6.01755">
        <ele>402.4</ele>
        <time>2017-01-08T10:44:23Z</time>
      </trkpt>
      <trkpt lat="43.55319" lon="6.01766">
        <ele>403</ele>
        <time>2017-01-08T10:44:33Z</time>
      </trkpt>
      <trkpt lat="43.55314" lon="6.01778">
        <ele>403.5</ele>
        <time>2017-01-08T10:44:43Z</time>
      </trkpt>
      <trkpt lat="43.55308" lon="6.01789">
        <ele>404.1</ele>
        <time>2017-01-08T10:44:51Z</time>
      </trkpt>
      <trkpt lat="43.55303" lon="6.018">
        <ele>404.7</ele>
        <time>2017-01-08T10:45:00Z</time>
      </trkpt>
      <trkpt lat="43.55298" lon="6.0181">
        <ele>405.4</ele>
        <time>2017-01-08T10:45:10Z</time>
      </trkpt>
      <trkpt lat="43.55292" lon="6.01822">
        <ele>406</ele>
        <time>2017-01-08T10:45:18Z</time>
      </trkpt>
      <trkpt lat="43.55287" lon="6.01832">
        <ele>406.3</ele>
        <time>2017-01-08T10:45:25Z</time>
      </trkpt>
      <trkpt lat="43.55283" lon="6.01844">
        <ele>406.6</ele>
        <time>2017-01-08T10:45:34Z</time>
      </trkpt>
      <trkpt lat="43.55277" lon="6.01854">
        <ele>407.2</ele>
        <time>2017-01-08T10:45:43Z</time>
      </trkpt>
      <trkpt lat="43.55271" lon="6.01866">
        <ele>407.5</ele>
        <time>2017-01-08T10:45:52Z</time>
      </trkpt>
      <trkpt lat="43.55268" lon="6.01878">
        <ele>407.9</ele>
        <time>2017-01-08T10:46:02Z</time>
      </trkpt>
      <trkpt lat="43.55264" lon="6.01889">
        <ele>407.7</ele>
        <time>2017-01-08T10:48:34Z</time>
      </trkpt>
      <trkpt lat="43.55259" lon="6.019">
        <ele>407.6</ele>
        <time>2017-01-08T10:48:43Z</time>
      </trkpt>
      <trkpt lat="43.55253" lon="6.01911">
        <ele>407.3</ele>
        <time>2017-01-08T10:48:52Z</time>
      </trkpt>
      <trkpt lat="43.55246" lon="6.0192">
        <ele>406.7</ele>
        <time>2017-01-08T10:49:00Z</time>
      </trkpt>
      <trkpt lat="43.55238" lon="6.01927">
        <ele>405.2</ele>
        <time>2017-01-08T10:49:09Z</time>
      </trkpt>
      <trkpt lat="43.55231" lon="6.01935">
        <ele>403.8</ele>
        <time>2017-01-08T10:49:19Z</time>
      </trkpt>
      <trkpt lat="43.55224" lon="6.01945">
        <ele>401.9</ele>
        <time>2017-01-08T10:49:31Z</time>
      </trkpt>
      <trkpt lat="43.55218" lon="6.01954">
        <ele>400.1</ele>
        <time>2017-01-08T10:49:43Z</time>
      </trkpt>
      <trkpt lat="43.55209" lon="6.01959">
        <ele>398.6</ele>
        <time>2017-01-08T10:49:55Z</time>
      </trkpt>
      <trkpt lat="43.55201" lon="6.01965">
        <ele>397</ele>
        <time>2017-01-08T10:50:09Z</time>
      </trkpt>
      <trkpt lat="43.55194" lon="6.01975">
        <ele>395.9</ele>
        <time>2017-01-08T10:50:20Z</time>
      </trkpt>
      <trkpt lat="43.55189" lon="6.01987">
        <ele>394.5</ele>
        <time>2017-01-08T10:50:33Z</time>
      </trkpt>
      <trkpt lat="43.55181" lon="6.01993">
        <ele>392.6</ele>
        <time>2017-01-08T10:50:46Z</time>
      </trkpt>
      <trkpt lat="43.55177" lon="6.02004">
        <ele>391.1</ele>
        <time>2017-01-08T10:50:58Z</time>
      </trkpt>
      <trkpt lat="43.55169" lon="6.02012">
        <ele>389.6</ele>
        <time>2017-01-08T10:51:09Z</time>
      </trkpt>
      <trkpt lat="43.55162" lon="6.02021">
        <ele>388.2</ele>
        <time>2017-01-08T10:51:19Z</time>
      </trkpt>
      <trkpt lat="43.55152" lon="6.02023">
        <ele>387</ele>
        <time>2017-01-08T10:51:29Z</time>
      </trkpt>
      <trkpt lat="43.55145" lon="6.02031">
        <ele>385.6</ele>
        <time>2017-01-08T10:51:40Z</time>
      </trkpt>
      <trkpt lat="43.55138" lon="6.02041">
        <ele>384.2</ele>
        <time>2017-01-08T10:51:51Z</time>
      </trkpt>
      <trkpt lat="43.5513" lon="6.02049">
        <ele>383</ele>
        <time>2017-01-08T10:52:03Z</time>
      </trkpt>
      <trkpt lat="43.55122" lon="6.02056">
        <ele>381.9</ele>
        <time>2017-01-08T10:52:12Z</time>
      </trkpt>
      <trkpt lat="43.55121" lon="6.02069">
        <ele>380.6</ele>
        <time>2017-01-08T10:52:23Z</time>
      </trkpt>
      <trkpt lat="43.55116" lon="6.0208">
        <ele>379.6</ele>
        <time>2017-01-08T10:52:34Z</time>
      </trkpt>
      <trkpt lat="43.55112" lon="6.02092">
        <ele>378.1</ele>
        <time>2017-01-08T10:52:45Z</time>
      </trkpt>
      <trkpt lat="43.55115" lon="6.02103">
        <ele>375.6</ele>
        <time>2017-01-08T10:52:59Z</time>
      </trkpt>
      <trkpt lat="43.55123" lon="6.02111">
        <ele>374.5</ele>
        <time>2017-01-08T10:53:09Z</time>
      </trkpt>
      <trkpt lat="43.55131" lon="6.02115">
        <ele>373.4</ele>
        <time>2017-01-08T10:53:18Z</time>
      </trkpt>
      <trkpt lat="43.55141" lon="6.02119">
        <ele>372.4</ele>
        <time>2017-01-08T10:53:26Z</time>
      </trkpt>
      <trkpt lat="43.5515" lon="6.02119">
        <ele>371.3</ele>
        <time>2017-01-08T10:53:34Z</time>
      </trkpt>
      <trkpt lat="43.55159" lon="6.0212">
        <ele>370.1</ele>
        <time>2017-01-08T10:53:41Z</time>
      </trkpt>
      <trkpt lat="43.55169" lon="6.02118">
        <ele>368.2</ele>
        <time>2017-01-08T10:53:59Z</time>
      </trkpt>
      <trkpt lat="43.55179" lon="6.0212">
        <ele>367.6</ele>
        <time>2017-01-08T10:54:09Z</time>
      </trkpt>
      <trkpt lat="43.55188" lon="6.0212">
        <ele>366.6</ele>
        <time>2017-01-08T10:54:19Z</time>
      </trkpt>
      <trkpt lat="43.55198" lon="6.02119">
        <ele>366</ele>
        <time>2017-01-08T10:54:27Z</time>
      </trkpt>
      <trkpt lat="43.55207" lon="6.02119">
        <ele>365.6</ele>
        <time>2017-01-08T10:54:35Z</time>
      </trkpt>
      <trkpt lat="43.55216" lon="6.02121">
        <ele>364.8</ele>
        <time>2017-01-08T10:54:43Z</time>
      </trkpt>
      <trkpt lat="43.55215" lon="6.02133">
        <ele>362.6</ele>
        <time>2017-01-08T10:55:10Z</time>
      </trkpt>
      <trkpt lat="43.55208" lon="6.02141">
        <ele>361.1</ele>
        <time>2017-01-08T10:55:26Z</time>
      </trkpt>
      <trkpt lat="43.55199" lon="6.02142">
        <ele>360.5</ele>
        <time>2017-01-08T10:55:35Z</time>
      </trkpt>
      <trkpt lat="43.5519" lon="6.02143">
        <ele>360.2</ele>
        <time>2017-01-08T10:55:43Z</time>
      </trkpt>
      <trkpt lat="43.55181" lon="6.02146">
        <ele>359.9</ele>
        <time>2017-01-08T10:55:52Z</time>
      </trkpt>
      <trkpt lat="43.55172" lon="6.0215">
        <ele>360.1</ele>
        <time>2017-01-08T10:56:04Z</time>
      </trkpt>
      <trkpt lat="43.55161" lon="6.02151">
        <ele>360.4</ele>
        <time>2017-01-08T10:56:15Z</time>
      </trkpt>
      <trkpt lat="43.55152" lon="6.02156">
        <ele>360.6</ele>
        <time>2017-01-08T10:56:25Z</time>
      </trkpt>
      <trkpt lat="43.55143" lon="6.02161">
        <ele>360.9</ele>
        <time>2017-01-08T10:56:35Z</time>
      </trkpt>
      <trkpt lat="43.55134" lon="6.02165">
        <ele>361.1</ele>
        <time>2017-01-08T10:56:44Z</time>
      </trkpt>
      <trkpt lat="43.55125" lon="6.02171">
        <ele>361.1</ele>
        <time>2017-01-08T10:56:54Z</time>
      </trkpt>
      <trkpt lat="43.55118" lon="6.02179">
        <ele>361.1</ele>
        <time>2017-01-08T10:57:06Z</time>
      </trkpt>
      <trkpt lat="43.55111" lon="6.02189">
        <ele>361</ele>
        <time>2017-01-08T10:57:16Z</time>
      </trkpt>
      <trkpt lat="43.55106" lon="6.022">
        <ele>361.1</ele>
        <time>2017-01-08T10:57:26Z</time>
      </trkpt>
      <trkpt lat="43.55097" lon="6.02207">
        <ele>361.2</ele>
        <time>2017-01-08T10:57:35Z</time>
      </trkpt>
      <trkpt lat="43.55089" lon="6.02214">
        <ele>361.8</ele>
        <time>2017-01-08T10:57:47Z</time>
      </trkpt>
      <trkpt lat="43.55082" lon="6.02224">
        <ele>362.1</ele>
        <time>2017-01-08T10:58:01Z</time>
      </trkpt>
      <trkpt lat="43.55075" lon="6.02231">
        <ele>362.4</ele>
        <time>2017-01-08T10:58:10Z</time>
      </trkpt>
      <trkpt lat="43.55068" lon="6.02241">
        <ele>363</ele>
        <time>2017-01-08T10:58:20Z</time>
      </trkpt>
      <trkpt lat="43.55066" lon="6.02254">
        <ele>363.5</ele>
        <time>2017-01-08T10:58:28Z</time>
      </trkpt>
      <trkpt lat="43.55065" lon="6.02268">
        <ele>363.9</ele>
        <time>2017-01-08T10:58:35Z</time>
      </trkpt>
      <trkpt lat="43.55063" lon="6.02281">
        <ele>364.4</ele>
        <time>2017-01-08T10:58:47Z</time>
      </trkpt>
      <trkpt lat="43.55065" lon="6.02294">
        <ele>364.8</ele>
        <time>2017-01-08T10:58:55Z</time>
      </trkpt>
      <trkpt lat="43.55066" lon="6.02307">
        <ele>365.6</ele>
        <time>2017-01-08T10:59:04Z</time>
      </trkpt>
      <trkpt lat="43.55064" lon="6.02319">
        <ele>366.6</ele>
        <time>2017-01-08T10:59:15Z</time>
      </trkpt>
      <trkpt lat="43.55061" lon="6.02332">
        <ele>367</ele>
        <time>2017-01-08T10:59:26Z</time>
      </trkpt>
      <trkpt lat="43.55059" lon="6.02345">
        <ele>368</ele>
        <time>2017-01-08T10:59:38Z</time>
      </trkpt>
      <trkpt lat="43.55053" lon="6.02354">
        <ele>369.1</ele>
        <time>2017-01-08T10:59:50Z</time>
      </trkpt>
      <trkpt lat="43.55046" lon="6.02364">
        <ele>370.4</ele>
        <time>2017-01-08T11:00:01Z</time>
      </trkpt>
      <trkpt lat="43.55039" lon="6.02373">
        <ele>371.6</ele>
        <time>2017-01-08T11:00:13Z</time>
      </trkpt>
      <trkpt lat="43.55034" lon="6.02384">
        <ele>372.5</ele>
        <time>2017-01-08T11:00:24Z</time>
      </trkpt>
      <trkpt lat="43.55026" lon="6.0239">
        <ele>373.3</ele>
        <time>2017-01-08T11:00:34Z</time>
      </trkpt>
      <trkpt lat="43.55017" lon="6.02395">
        <ele>374.3</ele>
        <time>2017-01-08T11:00:44Z</time>
      </trkpt>
      <trkpt lat="43.55011" lon="6.02405">
        <ele>374.7</ele>
        <time>2017-01-08T11:00:54Z</time>
      </trkpt>
      <trkpt lat="43.55005" lon="6.02415">
        <ele>375.1</ele>
        <time>2017-01-08T11:01:04Z</time>
      </trkpt>
      <trkpt lat="43.54996" lon="6.02422">
        <ele>375.4</ele>
        <time>2017-01-08T11:01:14Z</time>
      </trkpt>
      <trkpt lat="43.54987" lon="6.02427">
        <ele>375.6</ele>
        <time>2017-01-08T11:01:22Z</time>
      </trkpt>
      <trkpt lat="43.54979" lon="6.02435">
        <ele>375.8</ele>
        <time>2017-01-08T11:01:30Z</time>
      </trkpt>
      <trkpt lat="43.54973" lon="6.02443">
        <ele>375.8</ele>
        <time>2017-01-08T11:01:41Z</time>
      </trkpt>
      <trkpt lat="43.54965" lon="6.02452">
        <ele>375.8</ele>
        <time>2017-01-08T11:01:50Z</time>
      </trkpt>
      <trkpt lat="43.54959" lon="6.02462">
        <ele>375.8</ele>
        <time>2017-01-08T11:02:04Z</time>
      </trkpt>
      <trkpt lat="43.5495" lon="6.02467">
        <ele>375.8</ele>
        <time>2017-01-08T11:02:15Z</time>
      </trkpt>
      <trkpt lat="43.54941" lon="6.02473">
        <ele>376.1</ele>
        <time>2017-01-08T11:02:25Z</time>
      </trkpt>
      <trkpt lat="43.54932" lon="6.02476">
        <ele>376.3</ele>
        <time>2017-01-08T11:02:32Z</time>
      </trkpt>
      <trkpt lat="43.54923" lon="6.0248">
        <ele>376.6</ele>
        <time>2017-01-08T11:02:43Z</time>
      </trkpt>
      <trkpt lat="43.54915" lon="6.02486">
        <ele>376.8</ele>
        <time>2017-01-08T11:02:53Z</time>
      </trkpt>
      <trkpt lat="43.54906" lon="6.02489">
        <ele>377.1</ele>
        <time>2017-01-08T11:03:01Z</time>
      </trkpt>
      <trkpt lat="43.54897" lon="6.02493">
        <ele>377.8</ele>
        <time>2017-01-08T11:03:10Z</time>
      </trkpt>
      <trkpt lat="43.54887" lon="6.02497">
        <ele>378.3</ele>
        <time>2017-01-08T11:03:19Z</time>
      </trkpt>
      <trkpt lat="43.54879" lon="6.02503">
        <ele>378.8</ele>
        <time>2017-01-08T11:03:32Z</time>
      </trkpt>
      <trkpt lat="43.5487" lon="6.0251">
        <ele>378.9</ele>
        <time>2017-01-08T11:03:40Z</time>
      </trkpt>
      <trkpt lat="43.54861" lon="6.02513">
        <ele>379.3</ele>
        <time>2017-01-08T11:03:48Z</time>
      </trkpt>
      <trkpt lat="43.54853" lon="6.02519">
        <ele>379.7</ele>
        <time>2017-01-08T11:03:59Z</time>
      </trkpt>
      <trkpt lat="43.54844" lon="6.02524">
        <ele>380.1</ele>
        <time>2017-01-08T11:04:10Z</time>
      </trkpt>
      <trkpt lat="43.54836" lon="6.02532">
        <ele>380.4</ele>
        <time>2017-01-08T11:04:19Z</time>
      </trkpt>
      <trkpt lat="43.5483" lon="6.02541">
        <ele>380.7</ele>
        <time>2017-01-08T11:04:30Z</time>
      </trkpt>
      <trkpt lat="43.54824" lon="6.02553">
        <ele>380.9</ele>
        <time>2017-01-08T11:04:39Z</time>
      </trkpt>
      <trkpt lat="43.54819" lon="6.02563">
        <ele>381.3</ele>
        <time>2017-01-08T11:04:48Z</time>
      </trkpt>
      <trkpt lat="43.54812" lon="6.02571">
        <ele>381.8</ele>
        <time>2017-01-08T11:04:59Z</time>
      </trkpt>
      <trkpt lat="43.54816" lon="6.02584">
        <ele>382.5</ele>
        <time>2017-01-08T11:05:33Z</time>
      </trkpt>
      <trkpt lat="43.54824" lon="6.02591">
        <ele>382.4</ele>
        <time>2017-01-08T11:05:43Z</time>
      </trkpt>
      <trkpt lat="43.54833" lon="6.02598">
        <ele>382.4</ele>
        <time>2017-01-08T11:05:52Z</time>
      </trkpt>
      <trkpt lat="43.54839" lon="6.02608">
        <ele>382.3</ele>
        <time>2017-01-08T11:06:01Z</time>
      </trkpt>
      <trkpt lat="43.54847" lon="6.02617">
        <ele>382.3</ele>
        <time>2017-01-08T11:06:07Z</time>
      </trkpt>
      <trkpt lat="43.54854" lon="6.02624">
        <ele>382.3</ele>
        <time>2017-01-08T11:06:19Z</time>
      </trkpt>
      <trkpt lat="43.54862" lon="6.02631">
        <ele>382.1</ele>
        <time>2017-01-08T11:06:28Z</time>
      </trkpt>
      <trkpt lat="43.54868" lon="6.02642">
        <ele>381.7</ele>
        <time>2017-01-08T11:06:36Z</time>
      </trkpt>
      <trkpt lat="43.54877" lon="6.02646">
        <ele>380.9</ele>
        <time>2017-01-08T11:06:46Z</time>
      </trkpt>
      <trkpt lat="43.54885" lon="6.02654">
        <ele>380.2</ele>
        <time>2017-01-08T11:06:54Z</time>
      </trkpt>
      <trkpt lat="43.54893" lon="6.02661">
        <ele>379.2</ele>
        <time>2017-01-08T11:07:03Z</time>
      </trkpt>
      <trkpt lat="43.54902" lon="6.02665">
        <ele>378</ele>
        <time>2017-01-08T11:07:14Z</time>
      </trkpt>
      <trkpt lat="43.54911" lon="6.02669">
        <ele>377.2</ele>
        <time>2017-01-08T11:07:24Z</time>
      </trkpt>
      <trkpt lat="43.5492" lon="6.02671">
        <ele>376.7</ele>
        <time>2017-01-08T11:07:33Z</time>
      </trkpt>
      <trkpt lat="43.54929" lon="6.02673">
        <ele>376.5</ele>
        <time>2017-01-08T11:07:40Z</time>
      </trkpt>
      <trkpt lat="43.54938" lon="6.02675">
        <ele>376.2</ele>
        <time>2017-01-08T11:07:50Z</time>
      </trkpt>
      <trkpt lat="43.54946" lon="6.02681">
        <ele>376.4</ele>
        <time>2017-01-08T11:08:02Z</time>
      </trkpt>
      <trkpt lat="43.54955" lon="6.02689">
        <ele>376.6</ele>
        <time>2017-01-08T11:08:11Z</time>
      </trkpt>
      <trkpt lat="43.54961" lon="6.02698">
        <ele>376.9</ele>
        <time>2017-01-08T11:08:21Z</time>
      </trkpt>
      <trkpt lat="43.5497" lon="6.02704">
        <ele>377.2</ele>
        <time>2017-01-08T11:08:29Z</time>
      </trkpt>
      <trkpt lat="43.54979" lon="6.02707">
        <ele>377.3</ele>
        <time>2017-01-08T11:08:36Z</time>
      </trkpt>
      <trkpt lat="43.54988" lon="6.02713">
        <ele>377.3</ele>
        <time>2017-01-08T11:08:45Z</time>
      </trkpt>
      <trkpt lat="43.54997" lon="6.02718">
        <ele>377.3</ele>
        <time>2017-01-08T11:08:54Z</time>
      </trkpt>
      <trkpt lat="43.55006" lon="6.02723">
        <ele>377.2</ele>
        <time>2017-01-08T11:09:03Z</time>
      </trkpt>
      <trkpt lat="43.55014" lon="6.02728">
        <ele>376.8</ele>
        <time>2017-01-08T11:09:14Z</time>
      </trkpt>
      <trkpt lat="43.55023" lon="6.02732">
        <ele>376.1</ele>
        <time>2017-01-08T11:09:24Z</time>
      </trkpt>
      <trkpt lat="43.55031" lon="6.02737">
        <ele>375.8</ele>
        <time>2017-01-08T11:09:31Z</time>
      </trkpt>
      <trkpt lat="43.55042" lon="6.0274">
        <ele>375.5</ele>
        <time>2017-01-08T11:09:39Z</time>
      </trkpt>
      <trkpt lat="43.55051" lon="6.02741">
        <ele>375.1</ele>
        <time>2017-01-08T11:09:47Z</time>
      </trkpt>
      <trkpt lat="43.5506" lon="6.02743">
        <ele>374.8</ele>
        <time>2017-01-08T11:09:57Z</time>
      </trkpt>
      <trkpt lat="43.55069" lon="6.02746">
        <ele>374.1</ele>
        <time>2017-01-08T11:10:07Z</time>
      </trkpt>
      <trkpt lat="43.55078" lon="6.02749">
        <ele>373.7</ele>
        <time>2017-01-08T11:10:14Z</time>
      </trkpt>
      <trkpt lat="43.55087" lon="6.02754">
        <ele>373.3</ele>
        <time>2017-01-08T11:10:23Z</time>
      </trkpt>
      <trkpt lat="43.55097" lon="6.02755">
        <ele>372.9</ele>
        <time>2017-01-08T11:10:31Z</time>
      </trkpt>
      <trkpt lat="43.55106" lon="6.02754">
        <ele>372.7</ele>
        <time>2017-01-08T11:10:39Z</time>
      </trkpt>
      <trkpt lat="43.55115" lon="6.02754">
        <ele>372.5</ele>
        <time>2017-01-08T11:10:48Z</time>
      </trkpt>
      <trkpt lat="43.55125" lon="6.02753">
        <ele>372.1</ele>
        <time>2017-01-08T11:10:55Z</time>
      </trkpt>
      <trkpt lat="43.55134" lon="6.02751">
        <ele>371.6</ele>
        <time>2017-01-08T11:11:04Z</time>
      </trkpt>
      <trkpt lat="43.55144" lon="6.0275">
        <ele>371.4</ele>
        <time>2017-01-08T11:11:11Z</time>
      </trkpt>
      <trkpt lat="43.55153" lon="6.02749">
        <ele>371.2</ele>
        <time>2017-01-08T11:11:19Z</time>
      </trkpt>
      <trkpt lat="43.55163" lon="6.02751">
        <ele>371</ele>
        <time>2017-01-08T11:11:27Z</time>
      </trkpt>
      <trkpt lat="43.55172" lon="6.02752">
        <ele>370.7</ele>
        <time>2017-01-08T11:11:35Z</time>
      </trkpt>
      <trkpt lat="43.55181" lon="6.02752">
        <ele>370.2</ele>
        <time>2017-01-08T11:11:43Z</time>
      </trkpt>
      <trkpt lat="43.55191" lon="6.02754">
        <ele>369.8</ele>
        <time>2017-01-08T11:11:52Z</time>
      </trkpt>
      <trkpt lat="43.552" lon="6.02757">
        <ele>369.1</ele>
        <time>2017-01-08T11:12:01Z</time>
      </trkpt>
      <trkpt lat="43.55208" lon="6.02763">
        <ele>367.9</ele>
        <time>2017-01-08T11:12:10Z</time>
      </trkpt>
      <trkpt lat="43.55212" lon="6.02774">
        <ele>366.7</ele>
        <time>2017-01-08T11:12:18Z</time>
      </trkpt>
      <trkpt lat="43.55212" lon="6.02787">
        <ele>365.4</ele>
        <time>2017-01-08T11:12:28Z</time>
      </trkpt>
      <trkpt lat="43.55217" lon="6.02799">
        <ele>364.6</ele>
        <time>2017-01-08T11:12:36Z</time>
      </trkpt>
      <trkpt lat="43.5522" lon="6.02811">
        <ele>363.8</ele>
        <time>2017-01-08T11:12:46Z</time>
      </trkpt>
      <trkpt lat="43.55226" lon="6.02822">
        <ele>363.3</ele>
        <time>2017-01-08T11:12:54Z</time>
      </trkpt>
      <trkpt lat="43.55232" lon="6.02831">
        <ele>363</ele>
        <time>2017-01-08T11:13:01Z</time>
      </trkpt>
      <trkpt lat="43.55238" lon="6.02841">
        <ele>362.8</ele>
        <time>2017-01-08T11:13:09Z</time>
      </trkpt>
      <trkpt lat="43.55242" lon="6.02853">
        <ele>363.5</ele>
        <time>2017-01-08T11:13:20Z</time>
      </trkpt>
      <trkpt lat="43.55246" lon="6.02864">
        <ele>364.1</ele>
        <time>2017-01-08T11:13:28Z</time>
      </trkpt>
      <trkpt lat="43.55251" lon="6.02876">
        <ele>364.9</ele>
        <time>2017-01-08T11:13:41Z</time>
      </trkpt>
      <trkpt lat="43.55257" lon="6.02886">
        <ele>366.4</ele>
        <time>2017-01-08T11:13:52Z</time>
      </trkpt>
      <trkpt lat="43.55261" lon="6.02897">
        <ele>368.2</ele>
        <time>2017-01-08T11:14:13Z</time>
      </trkpt>
      <trkpt lat="43.55267" lon="6.02907">
        <ele>369.3</ele>
        <time>2017-01-08T11:14:25Z</time>
      </trkpt>
      <trkpt lat="43.55273" lon="6.02919">
        <ele>370.3</ele>
        <time>2017-01-08T11:14:36Z</time>
      </trkpt>
      <trkpt lat="43.55276" lon="6.02931">
        <ele>371.4</ele>
        <time>2017-01-08T11:14:46Z</time>
      </trkpt>
      <trkpt lat="43.55281" lon="6.02942">
        <ele>372.5</ele>
        <time>2017-01-08T11:14:57Z</time>
      </trkpt>
      <trkpt lat="43.55286" lon="6.02954">
        <ele>373.8</ele>
        <time>2017-01-08T11:15:12Z</time>
      </trkpt>
      <trkpt lat="43.55289" lon="6.02966">
        <ele>374.2</ele>
        <time>2017-01-08T11:15:28Z</time>
      </trkpt>
      <trkpt lat="43.55294" lon="6.02977">
        <ele>374.9</ele>
        <time>2017-01-08T11:15:40Z</time>
      </trkpt>
      <trkpt lat="43.55299" lon="6.02987">
        <ele>376.7</ele>
        <time>2017-01-08T11:16:05Z</time>
      </trkpt>
      <trkpt lat="43.55302" lon="6.02999">
        <ele>377.7</ele>
        <time>2017-01-08T11:16:18Z</time>
      </trkpt>
      <trkpt lat="43.55305" lon="6.03012">
        <ele>378.8</ele>
        <time>2017-01-08T11:16:47Z</time>
      </trkpt>
      <trkpt lat="43.55303" lon="6.03025">
        <ele>379.4</ele>
        <time>2017-01-08T11:16:57Z</time>
      </trkpt>
      <trkpt lat="43.55309" lon="6.03036">
        <ele>381.3</ele>
        <time>2017-01-08T11:17:16Z</time>
      </trkpt>
      <trkpt lat="43.55313" lon="6.03049">
        <ele>382.3</ele>
        <time>2017-01-08T11:17:23Z</time>
      </trkpt>
      <trkpt lat="43.55318" lon="6.0306">
        <ele>383.2</ele>
        <time>2017-01-08T11:17:31Z</time>
      </trkpt>
      <trkpt lat="43.55326" lon="6.03067">
        <ele>384.4</ele>
        <time>2017-01-08T11:17:42Z</time>
      </trkpt>
      <trkpt lat="43.55333" lon="6.03075">
        <ele>385.5</ele>
        <time>2017-01-08T11:17:53Z</time>
      </trkpt>
      <trkpt lat="43.55341" lon="6.03081">
        <ele>387.2</ele>
        <time>2017-01-08T11:18:10Z</time>
      </trkpt>
      <trkpt lat="43.5535" lon="6.03085">
        <ele>388.9</ele>
        <time>2017-01-08T11:18:26Z</time>
      </trkpt>
      <trkpt lat="43.55362" lon="6.0309">
        <ele>389</ele>
        <time>2017-01-08T11:18:35Z</time>
      </trkpt>
      <trkpt lat="43.55368" lon="6.03099">
        <ele>392.8</ele>
        <time>2017-01-08T11:18:54Z</time>
      </trkpt>
      <trkpt lat="43.55374" lon="6.03111">
        <ele>395</ele>
        <time>2017-01-08T11:19:14Z</time>
      </trkpt>
      <trkpt lat="43.55387" lon="6.03114">
        <ele>397</ele>
        <time>2017-01-08T11:19:28Z</time>
      </trkpt>
      <trkpt lat="43.55395" lon="6.03108">
        <ele>399.6</ele>
        <time>2017-01-08T11:19:53Z</time>
      </trkpt>
      <trkpt lat="43.55401" lon="6.03118">
        <ele>400.8</ele>
        <time>2017-01-08T11:20:04Z</time>
      </trkpt>
      <trkpt lat="43.55394" lon="6.03125">
        <ele>404.4</ele>
        <time>2017-01-08T11:20:53Z</time>
      </trkpt>
      <trkpt lat="43.55397" lon="6.03138">
        <ele>405.9</ele>
        <time>2017-01-08T11:21:20Z</time>
      </trkpt>
      <trkpt lat="43.55405" lon="6.03144">
        <ele>406.4</ele>
        <time>2017-01-08T11:21:40Z</time>
      </trkpt>
      <trkpt lat="43.55403" lon="6.03157">
        <ele>407.1</ele>
        <time>2017-01-08T11:21:56Z</time>
      </trkpt>
      <trkpt lat="43.55398" lon="6.03168">
        <ele>405.9</ele>
        <time>2017-01-08T11:45:45Z</time>
      </trkpt>
      <trkpt lat="43.55404" lon="6.03157">
        <ele>408.9</ele>
        <time>2017-01-08T12:08:42Z</time>
      </trkpt>
      <trkpt lat="43.55395" lon="6.0316">
        <ele>408</ele>
        <time>2017-01-08T12:11:33Z</time>
      </trkpt>
      <trkpt lat="43.55404" lon="6.03165">
        <ele>408.9</ele>
        <time>2017-01-08T12:13:21Z</time>
      </trkpt>
      <trkpt lat="43.55406" lon="6.03153">
        <ele>410.1</ele>
        <time>2017-01-08T12:13:39Z</time>
      </trkpt>
      <trkpt lat="43.55412" lon="6.03142">
        <ele>411.1</ele>
        <time>2017-01-08T12:14:12Z</time>
      </trkpt>
      <trkpt lat="43.55416" lon="6.0313">
        <ele>411.2</ele>
        <time>2017-01-08T12:14:43Z</time>
      </trkpt>
      <trkpt lat="43.55425" lon="6.03128">
        <ele>411.3</ele>
        <time>2017-01-08T12:14:52Z</time>
      </trkpt>
      <trkpt lat="43.55419" lon="6.03117">
        <ele>411.8</ele>
        <time>2017-01-08T12:16:22Z</time>
      </trkpt>
      <trkpt lat="43.55424" lon="6.03108">
        <ele>408.9</ele>
        <time>2017-01-08T12:16:41Z</time>
      </trkpt>
      <trkpt lat="43.55433" lon="6.03104">
        <ele>407.2</ele>
        <time>2017-01-08T12:16:51Z</time>
      </trkpt>
      <trkpt lat="43.55442" lon="6.031">
        <ele>404.4</ele>
        <time>2017-01-08T12:17:04Z</time>
      </trkpt>
      <trkpt lat="43.55441" lon="6.03088">
        <ele>402.1</ele>
        <time>2017-01-08T12:17:15Z</time>
      </trkpt>
      <trkpt lat="43.55433" lon="6.0308">
        <ele>400.6</ele>
        <time>2017-01-08T12:17:26Z</time>
      </trkpt>
      <trkpt lat="43.55442" lon="6.03081">
        <ele>398.2</ele>
        <time>2017-01-08T12:17:38Z</time>
      </trkpt>
      <trkpt lat="43.55451" lon="6.0308">
        <ele>394.9</ele>
        <time>2017-01-08T12:17:58Z</time>
      </trkpt>
      <trkpt lat="43.55461" lon="6.0308">
        <ele>391</ele>
        <time>2017-01-08T12:18:18Z</time>
      </trkpt>
      <trkpt lat="43.55467" lon="6.03071">
        <ele>388.2</ele>
        <time>2017-01-08T12:18:36Z</time>
      </trkpt>
      <trkpt lat="43.55473" lon="6.0306">
        <ele>382.5</ele>
        <time>2017-01-08T12:19:19Z</time>
      </trkpt>
      <trkpt lat="43.55479" lon="6.03051">
        <ele>379.9</ele>
        <time>2017-01-08T12:19:35Z</time>
      </trkpt>
      <trkpt lat="43.55472" lon="6.03044">
        <ele>377.8</ele>
        <time>2017-01-08T12:19:59Z</time>
      </trkpt>
      <trkpt lat="43.55481" lon="6.03045">
        <ele>376.5</ele>
        <time>2017-01-08T12:20:22Z</time>
      </trkpt>
      <trkpt lat="43.55489" lon="6.03053">
        <ele>375.3</ele>
        <time>2017-01-08T12:20:52Z</time>
      </trkpt>
      <trkpt lat="43.55499" lon="6.03052">
        <ele>374.7</ele>
        <time>2017-01-08T12:21:01Z</time>
      </trkpt>
      <trkpt lat="43.55508" lon="6.03051">
        <ele>374.1</ele>
        <time>2017-01-08T12:21:09Z</time>
      </trkpt>
      <trkpt lat="43.55518" lon="6.03051">
        <ele>373.1</ele>
        <time>2017-01-08T12:21:19Z</time>
      </trkpt>
      <trkpt lat="43.55528" lon="6.03052">
        <ele>371.9</ele>
        <time>2017-01-08T12:21:29Z</time>
      </trkpt>
      <trkpt lat="43.55537" lon="6.03052">
        <ele>370.4</ele>
        <time>2017-01-08T12:21:41Z</time>
      </trkpt>
      <trkpt lat="43.55547" lon="6.03054">
        <ele>369.4</ele>
        <time>2017-01-08T12:21:54Z</time>
      </trkpt>
      <trkpt lat="43.55555" lon="6.03058">
        <ele>368.4</ele>
        <time>2017-01-08T12:22:05Z</time>
      </trkpt>
      <trkpt lat="43.55565" lon="6.0306">
        <ele>367.5</ele>
        <time>2017-01-08T12:22:14Z</time>
      </trkpt>
      <trkpt lat="43.55574" lon="6.03063">
        <ele>366.5</ele>
        <time>2017-01-08T12:22:26Z</time>
      </trkpt>
      <trkpt lat="43.55584" lon="6.03064">
        <ele>365.7</ele>
        <time>2017-01-08T12:22:37Z</time>
      </trkpt>
      <trkpt lat="43.55593" lon="6.03071">
        <ele>365.1</ele>
        <time>2017-01-08T12:22:45Z</time>
      </trkpt>
      <trkpt lat="43.55602" lon="6.03074">
        <ele>364.7</ele>
        <time>2017-01-08T12:22:54Z</time>
      </trkpt>
      <trkpt lat="43.55613" lon="6.03071">
        <ele>364.3</ele>
        <time>2017-01-08T12:23:02Z</time>
      </trkpt>
      <trkpt lat="43.55622" lon="6.03073">
        <ele>363.9</ele>
        <time>2017-01-08T12:23:12Z</time>
      </trkpt>
      <trkpt lat="43.55631" lon="6.03073">
        <ele>363.5</ele>
        <time>2017-01-08T12:23:20Z</time>
      </trkpt>
      <trkpt lat="43.5564" lon="6.03071">
        <ele>363.2</ele>
        <time>2017-01-08T12:23:27Z</time>
      </trkpt>
      <trkpt lat="43.55649" lon="6.03065">
        <ele>362.8</ele>
        <time>2017-01-08T12:23:31Z</time>
      </trkpt>
      <trkpt lat="43.55658" lon="6.03058">
        <ele>361.9</ele>
        <time>2017-01-08T12:23:39Z</time>
      </trkpt>
      <trkpt lat="43.55666" lon="6.03052">
        <ele>361.2</ele>
        <time>2017-01-08T12:23:46Z</time>
      </trkpt>
      <trkpt lat="43.55674" lon="6.03046">
        <ele>360.5</ele>
        <time>2017-01-08T12:23:53Z</time>
      </trkpt>
      <trkpt lat="43.55682" lon="6.0304">
        <ele>359.3</ele>
        <time>2017-01-08T12:24:03Z</time>
      </trkpt>
      <trkpt lat="43.5569" lon="6.03033">
        <ele>357.9</ele>
        <time>2017-01-08T12:24:15Z</time>
      </trkpt>
      <trkpt lat="43.55699" lon="6.03029">
        <ele>356.8</ele>
        <time>2017-01-08T12:24:26Z</time>
      </trkpt>
      <trkpt lat="43.55707" lon="6.03023">
        <ele>355.9</ele>
        <time>2017-01-08T12:24:35Z</time>
      </trkpt>
      <trkpt lat="43.55716" lon="6.03019">
        <ele>355.1</ele>
        <time>2017-01-08T12:24:44Z</time>
      </trkpt>
      <trkpt lat="43.55725" lon="6.03014">
        <ele>354.3</ele>
        <time>2017-01-08T12:24:52Z</time>
      </trkpt>
      <trkpt lat="43.55733" lon="6.03008">
        <ele>353.4</ele>
        <time>2017-01-08T12:25:00Z</time>
      </trkpt>
      <trkpt lat="43.5574" lon="6.03">
        <ele>352.2</ele>
        <time>2017-01-08T12:25:10Z</time>
      </trkpt>
      <trkpt lat="43.55749" lon="6.02993">
        <ele>350.7</ele>
        <time>2017-01-08T12:25:20Z</time>
      </trkpt>
      <trkpt lat="43.55758" lon="6.02987">
        <ele>349.6</ele>
        <time>2017-01-08T12:25:28Z</time>
      </trkpt>
      <trkpt lat="43.55766" lon="6.0298">
        <ele>348.2</ele>
        <time>2017-01-08T12:25:39Z</time>
      </trkpt>
      <trkpt lat="43.55775" lon="6.02975">
        <ele>346.9</ele>
        <time>2017-01-08T12:25:52Z</time>
      </trkpt>
      <trkpt lat="43.55784" lon="6.0297">
        <ele>346.3</ele>
        <time>2017-01-08T12:26:02Z</time>
      </trkpt>
      <trkpt lat="43.55792" lon="6.02965">
        <ele>345.6</ele>
        <time>2017-01-08T12:26:10Z</time>
      </trkpt>
      <trkpt lat="43.55802" lon="6.02965">
        <ele>344.8</ele>
        <time>2017-01-08T12:26:21Z</time>
      </trkpt>
      <trkpt lat="43.55812" lon="6.02966">
        <ele>343.8</ele>
        <time>2017-01-08T12:26:28Z</time>
      </trkpt>
      <trkpt lat="43.55821" lon="6.02968">
        <ele>342.3</ele>
        <time>2017-01-08T12:26:39Z</time>
      </trkpt>
      <trkpt lat="43.5583" lon="6.02964">
        <ele>340.9</ele>
        <time>2017-01-08T12:26:53Z</time>
      </trkpt>
      <trkpt lat="43.55836" lon="6.02953">
        <ele>339</ele>
        <time>2017-01-08T12:27:32Z</time>
      </trkpt>
      <trkpt lat="43.55844" lon="6.02945">
        <ele>338.9</ele>
        <time>2017-01-08T12:27:42Z</time>
      </trkpt>
      <trkpt lat="43.55851" lon="6.02936">
        <ele>338.8</ele>
        <time>2017-01-08T12:27:52Z</time>
      </trkpt>
      <trkpt lat="43.55858" lon="6.02929">
        <ele>338.6</ele>
        <time>2017-01-08T12:28:02Z</time>
      </trkpt>
      <trkpt lat="43.55868" lon="6.02922">
        <ele>338.2</ele>
        <time>2017-01-08T12:28:13Z</time>
      </trkpt>
      <trkpt lat="43.55876" lon="6.02916">
        <ele>337.7</ele>
        <time>2017-01-08T12:28:22Z</time>
      </trkpt>
      <trkpt lat="43.55886" lon="6.02911">
        <ele>337.3</ele>
        <time>2017-01-08T12:28:30Z</time>
      </trkpt>
      <trkpt lat="43.55894" lon="6.02905">
        <ele>337.1</ele>
        <time>2017-01-08T12:28:39Z</time>
      </trkpt>
      <trkpt lat="43.55904" lon="6.02899">
        <ele>337.1</ele>
        <time>2017-01-08T12:28:49Z</time>
      </trkpt>
      <trkpt lat="43.55911" lon="6.02892">
        <ele>337</ele>
        <time>2017-01-08T12:29:00Z</time>
      </trkpt>
      <trkpt lat="43.5592" lon="6.02887">
        <ele>336.8</ele>
        <time>2017-01-08T12:29:09Z</time>
      </trkpt>
      <trkpt lat="43.55929" lon="6.02883">
        <ele>336.7</ele>
        <time>2017-01-08T12:29:18Z</time>
      </trkpt>
      <trkpt lat="43.55938" lon="6.02879">
        <ele>336.2</ele>
        <time>2017-01-08T12:29:26Z</time>
      </trkpt>
      <trkpt lat="43.55947" lon="6.02874">
        <ele>335.8</ele>
        <time>2017-01-08T12:29:35Z</time>
      </trkpt>
      <trkpt lat="43.55956" lon="6.02869">
        <ele>335.7</ele>
        <time>2017-01-08T12:29:44Z</time>
      </trkpt>
      <trkpt lat="43.55966" lon="6.02863">
        <ele>335.6</ele>
        <time>2017-01-08T12:29:53Z</time>
      </trkpt>
      <trkpt lat="43.55975" lon="6.02856">
        <ele>335.5</ele>
        <time>2017-01-08T12:30:01Z</time>
      </trkpt>
      <trkpt lat="43.55983" lon="6.02851">
        <ele>335.4</ele>
        <time>2017-01-08T12:30:12Z</time>
      </trkpt>
      <trkpt lat="43.55992" lon="6.02846">
        <ele>335</ele>
        <time>2017-01-08T12:30:23Z</time>
      </trkpt>
      <trkpt lat="43.56" lon="6.02841">
        <ele>334.9</ele>
        <time>2017-01-08T12:30:32Z</time>
      </trkpt>
      <trkpt lat="43.56009" lon="6.02836">
        <ele>334.8</ele>
        <time>2017-01-08T12:30:42Z</time>
      </trkpt>
      <trkpt lat="43.56017" lon="6.0283">
        <ele>334.5</ele>
        <time>2017-01-08T12:30:51Z</time>
      </trkpt>
      <trkpt lat="43.56025" lon="6.02824">
        <ele>334.2</ele>
        <time>2017-01-08T12:31:05Z</time>
      </trkpt>
      <trkpt lat="43.56025" lon="6.02811">
        <ele>333.9</ele>
        <time>2017-01-08T12:32:04Z</time>
      </trkpt>
      <trkpt lat="43.56027" lon="6.02799">
        <ele>333.9</ele>
        <time>2017-01-08T12:32:19Z</time>
      </trkpt>
      <trkpt lat="43.5603" lon="6.02785">
        <ele>333.9</ele>
        <time>2017-01-08T12:32:27Z</time>
      </trkpt>
      <trkpt lat="43.56032" lon="6.02773">
        <ele>333.9</ele>
        <time>2017-01-08T12:32:37Z</time>
      </trkpt>
      <trkpt lat="43.56035" lon="6.02761">
        <ele>333.9</ele>
        <time>2017-01-08T12:32:45Z</time>
      </trkpt>
      <trkpt lat="43.56036" lon="6.02748">
        <ele>334</ele>
        <time>2017-01-08T12:32:53Z</time>
      </trkpt>
      <trkpt lat="43.56037" lon="6.02735">
        <ele>334.1</ele>
        <time>2017-01-08T12:33:04Z</time>
      </trkpt>
      <trkpt lat="43.56039" lon="6.02722">
        <ele>334.2</ele>
        <time>2017-01-08T12:33:12Z</time>
      </trkpt>
      <trkpt lat="43.56037" lon="6.02708">
        <ele>334</ele>
        <time>2017-01-08T12:33:22Z</time>
      </trkpt>
      <trkpt lat="43.56037" lon="6.02694">
        <ele>333.9</ele>
        <time>2017-01-08T12:33:31Z</time>
      </trkpt>
      <trkpt lat="43.56039" lon="6.02679">
        <ele>334</ele>
        <time>2017-01-08T12:33:40Z</time>
      </trkpt>
      <trkpt lat="43.56037" lon="6.02667">
        <ele>333.9</ele>
        <time>2017-01-08T12:33:48Z</time>
      </trkpt>
      <trkpt lat="43.56037" lon="6.02654">
        <ele>333.8</ele>
        <time>2017-01-08T12:33:55Z</time>
      </trkpt>
      <trkpt lat="43.56036" lon="6.02641">
        <ele>333.8</ele>
        <time>2017-01-08T12:34:04Z</time>
      </trkpt>
      <trkpt lat="43.56035" lon="6.02628">
        <ele>333.9</ele>
        <time>2017-01-08T12:34:12Z</time>
      </trkpt>
      <trkpt lat="43.56037" lon="6.02615">
        <ele>333.9</ele>
        <time>2017-01-08T12:34:20Z</time>
      </trkpt>
      <trkpt lat="43.5604" lon="6.02603">
        <ele>333.9</ele>
        <time>2017-01-08T12:34:27Z</time>
      </trkpt>
      <trkpt lat="43.56041" lon="6.02589">
        <ele>333.9</ele>
        <time>2017-01-08T12:34:37Z</time>
      </trkpt>
      <trkpt lat="43.56039" lon="6.02576">
        <ele>333.9</ele>
        <time>2017-01-08T12:34:45Z</time>
      </trkpt>
      <trkpt lat="43.56041" lon="6.02564">
        <ele>334</ele>
        <time>2017-01-08T12:34:55Z</time>
      </trkpt>
      <trkpt lat="43.56041" lon="6.02551">
        <ele>334.2</ele>
        <time>2017-01-08T12:35:03Z</time>
      </trkpt>
      <trkpt lat="43.56041" lon="6.02538">
        <ele>334.4</ele>
        <time>2017-01-08T12:35:11Z</time>
      </trkpt>
      <trkpt lat="43.56041" lon="6.02524">
        <ele>334.6</ele>
        <time>2017-01-08T12:35:19Z</time>
      </trkpt>
      <trkpt lat="43.5604" lon="6.02511">
        <ele>334.6</ele>
        <time>2017-01-08T12:35:28Z</time>
      </trkpt>
      <trkpt lat="43.56038" lon="6.02498">
        <ele>334.5</ele>
        <time>2017-01-08T12:35:36Z</time>
      </trkpt>
      <trkpt lat="43.56037" lon="6.02485">
        <ele>334.7</ele>
        <time>2017-01-08T12:35:44Z</time>
      </trkpt>
      <trkpt lat="43.56034" lon="6.02472">
        <ele>334.8</ele>
        <time>2017-01-08T12:35:52Z</time>
      </trkpt>
      <trkpt lat="43.56033" lon="6.02459">
        <ele>334.8</ele>
        <time>2017-01-08T12:36:00Z</time>
      </trkpt>
      <trkpt lat="43.56033" lon="6.02446">
        <ele>334.7</ele>
        <time>2017-01-08T12:36:08Z</time>
      </trkpt>
      <trkpt lat="43.5603" lon="6.02433">
        <ele>334.7</ele>
        <time>2017-01-08T12:36:16Z</time>
      </trkpt>
      <trkpt lat="43.56026" lon="6.02421">
        <ele>334.6</ele>
        <time>2017-01-08T12:36:25Z</time>
      </trkpt>
      <trkpt lat="43.56021" lon="6.0241">
        <ele>334.5</ele>
        <time>2017-01-08T12:36:32Z</time>
      </trkpt>
      <trkpt lat="43.56016" lon="6.02398">
        <ele>334.3</ele>
        <time>2017-01-08T12:36:41Z</time>
      </trkpt>
      <trkpt lat="43.56013" lon="6.02385">
        <ele>334.2</ele>
        <time>2017-01-08T12:36:49Z</time>
      </trkpt>
      <trkpt lat="43.56009" lon="6.02373">
        <ele>334.2</ele>
        <time>2017-01-08T12:36:56Z</time>
      </trkpt>
      <trkpt lat="43.56004" lon="6.02364">
        <ele>334.2</ele>
        <time>2017-01-08T12:37:03Z</time>
      </trkpt>
      <trkpt lat="43.55998" lon="6.02353">
        <ele>334.1</ele>
        <time>2017-01-08T12:37:12Z</time>
      </trkpt>
      <trkpt lat="43.55993" lon="6.02341">
        <ele>334.1</ele>
        <time>2017-01-08T12:37:20Z</time>
      </trkpt>
      <trkpt lat="43.5599" lon="6.02329">
        <ele>334</ele>
        <time>2017-01-08T12:37:30Z</time>
      </trkpt>
      <trkpt lat="43.55985" lon="6.02318">
        <ele>334</ele>
        <time>2017-01-08T12:37:39Z</time>
      </trkpt>
      <trkpt lat="43.55978" lon="6.02308">
        <ele>334</ele>
        <time>2017-01-08T12:37:46Z</time>
      </trkpt>
      <trkpt lat="43.55972" lon="6.02299">
        <ele>334</ele>
        <time>2017-01-08T12:37:53Z</time>
      </trkpt>
      <trkpt lat="43.55965" lon="6.02289">
        <ele>333.9</ele>
        <time>2017-01-08T12:38:01Z</time>
      </trkpt>
      <trkpt lat="43.5596" lon="6.02278">
        <ele>333.9</ele>
        <time>2017-01-08T12:38:09Z</time>
      </trkpt>
      <trkpt lat="43.55954" lon="6.02268">
        <ele>333.8</ele>
        <time>2017-01-08T12:38:16Z</time>
      </trkpt>
      <trkpt lat="43.5595" lon="6.02256">
        <ele>333.7</ele>
        <time>2017-01-08T12:38:24Z</time>
      </trkpt>
      <trkpt lat="43.55945" lon="6.02246">
        <ele>333.7</ele>
        <time>2017-01-08T12:38:32Z</time>
      </trkpt>
      <trkpt lat="43.55941" lon="6.02234">
        <ele>333.6</ele>
        <time>2017-01-08T12:38:41Z</time>
      </trkpt>
      <trkpt lat="43.55938" lon="6.02221">
        <ele>333.4</ele>
        <time>2017-01-08T12:38:50Z</time>
      </trkpt>
      <trkpt lat="43.55933" lon="6.02211">
        <ele>333.5</ele>
        <time>2017-01-08T12:38:57Z</time>
      </trkpt>
      <trkpt lat="43.55927" lon="6.022">
        <ele>333.5</ele>
        <time>2017-01-08T12:39:06Z</time>
      </trkpt>
      <trkpt lat="43.55923" lon="6.02187">
        <ele>333.3</ele>
        <time>2017-01-08T12:39:16Z</time>
      </trkpt>
      <trkpt lat="43.55917" lon="6.02176">
        <ele>332.7</ele>
        <time>2017-01-08T12:39:24Z</time>
      </trkpt>
      <trkpt lat="43.55913" lon="6.02163">
        <ele>332.4</ele>
        <time>2017-01-08T12:39:33Z</time>
      </trkpt>
      <trkpt lat="43.5591" lon="6.02151">
        <ele>332.2</ele>
        <time>2017-01-08T12:39:41Z</time>
      </trkpt>
      <trkpt lat="43.55905" lon="6.0214">
        <ele>332.2</ele>
        <time>2017-01-08T12:39:48Z</time>
      </trkpt>
      <trkpt lat="43.55902" lon="6.02128">
        <ele>331.6</ele>
        <time>2017-01-08T12:39:58Z</time>
      </trkpt>
      <trkpt lat="43.55899" lon="6.02115">
        <ele>331.1</ele>
        <time>2017-01-08T12:40:08Z</time>
      </trkpt>
      <trkpt lat="43.55896" lon="6.02102">
        <ele>330.9</ele>
        <time>2017-01-08T12:40:16Z</time>
      </trkpt>
      <trkpt lat="43.55896" lon="6.02089">
        <ele>330.6</ele>
        <time>2017-01-08T12:40:25Z</time>
      </trkpt>
      <trkpt lat="43.55894" lon="6.02076">
        <ele>330.3</ele>
        <time>2017-01-08T12:40:32Z</time>
      </trkpt>
      <trkpt lat="43.55894" lon="6.02062">
        <ele>330.2</ele>
        <time>2017-01-08T12:40:40Z</time>
      </trkpt>
      <trkpt lat="43.55893" lon="6.02049">
        <ele>330.1</ele>
        <time>2017-01-08T12:40:49Z</time>
      </trkpt>
      <trkpt lat="43.55893" lon="6.02036">
        <ele>330.1</ele>
        <time>2017-01-08T12:40:57Z</time>
      </trkpt>
      <trkpt lat="43.55895" lon="6.02024">
        <ele>329.9</ele>
        <time>2017-01-08T12:41:05Z</time>
      </trkpt>
      <trkpt lat="43.55894" lon="6.02011">
        <ele>329.9</ele>
        <time>2017-01-08T12:41:13Z</time>
      </trkpt>
      <trkpt lat="43.55896" lon="6.01998">
        <ele>329.8</ele>
        <time>2017-01-08T12:41:21Z</time>
      </trkpt>
      <trkpt lat="43.559" lon="6.01986">
        <ele>329.8</ele>
        <time>2017-01-08T12:41:30Z</time>
      </trkpt>
      <trkpt lat="43.55902" lon="6.01974">
        <ele>329.9</ele>
        <time>2017-01-08T12:41:38Z</time>
      </trkpt>
      <trkpt lat="43.55906" lon="6.01961">
        <ele>330.1</ele>
        <time>2017-01-08T12:41:46Z</time>
      </trkpt>
      <trkpt lat="43.5591" lon="6.01949">
        <ele>330</ele>
        <time>2017-01-08T12:41:54Z</time>
      </trkpt>
      <trkpt lat="43.55911" lon="6.01937">
        <ele>329.8</ele>
        <time>2017-01-08T12:42:02Z</time>
      </trkpt>
      <trkpt lat="43.55913" lon="6.01924">
        <ele>329.4</ele>
        <time>2017-01-08T12:42:11Z</time>
      </trkpt>
      <trkpt lat="43.55916" lon="6.01911">
        <ele>329.1</ele>
        <time>2017-01-08T12:42:19Z</time>
      </trkpt>
      <trkpt lat="43.55918" lon="6.01899">
        <ele>329</ele>
        <time>2017-01-08T12:42:28Z</time>
      </trkpt>
      <trkpt lat="43.55922" lon="6.01887">
        <ele>328.8</ele>
        <time>2017-01-08T12:42:35Z</time>
      </trkpt>
      <trkpt lat="43.55926" lon="6.01874">
        <ele>328.7</ele>
        <time>2017-01-08T12:42:42Z</time>
      </trkpt>
      <trkpt lat="43.5593" lon="6.01862">
        <ele>328.6</ele>
        <time>2017-01-08T12:42:49Z</time>
      </trkpt>
      <trkpt lat="43.55933" lon="6.01851">
        <ele>328.4</ele>
        <time>2017-01-08T12:42:56Z</time>
      </trkpt>
      <trkpt lat="43.55933" lon="6.01838">
        <ele>328.3</ele>
        <time>2017-01-08T12:43:07Z</time>
      </trkpt>
      <trkpt lat="43.55936" lon="6.01826">
        <ele>328.4</ele>
        <time>2017-01-08T12:43:44Z</time>
      </trkpt>
      <trkpt lat="43.55945" lon="6.0182">
        <ele>328.4</ele>
        <time>2017-01-08T12:43:51Z</time>
      </trkpt>
      <trkpt lat="43.55952" lon="6.01813">
        <ele>328.4</ele>
        <time>2017-01-08T12:43:59Z</time>
      </trkpt>
      <trkpt lat="43.55958" lon="6.01802">
        <ele>328.4</ele>
        <time>2017-01-08T12:44:12Z</time>
      </trkpt>
      <trkpt lat="43.55959" lon="6.0179">
        <ele>328.4</ele>
        <time>2017-01-08T12:44:21Z</time>
      </trkpt>
      <trkpt lat="43.55961" lon="6.01778">
        <ele>328.4</ele>
        <time>2017-01-08T12:44:30Z</time>
      </trkpt>
      <trkpt lat="43.55959" lon="6.01765">
        <ele>328.4</ele>
        <time>2017-01-08T12:44:39Z</time>
      </trkpt>
      <trkpt lat="43.55959" lon="6.01752">
        <ele>328.4</ele>
        <time>2017-01-08T12:44:49Z</time>
      </trkpt>
      <trkpt lat="43.55959" lon="6.01739">
        <ele>328.4</ele>
        <time>2017-01-08T12:45:01Z</time>
      </trkpt>
      <trkpt lat="43.55957" lon="6.01725">
        <ele>328.4</ele>
        <time>2017-01-08T12:45:10Z</time>
      </trkpt>
      <trkpt lat="43.55957" lon="6.01712">
        <ele>328.4</ele>
        <time>2017-01-08T12:45:18Z</time>
      </trkpt>
      <trkpt lat="43.55954" lon="6.017">
        <ele>328.3</ele>
        <time>2017-01-08T12:45:25Z</time>
      </trkpt>
      <trkpt lat="43.55955" lon="6.01688">
        <ele>328.3</ele>
        <time>2017-01-08T12:45:32Z</time>
      </trkpt>
      <trkpt lat="43.55953" lon="6.01675">
        <ele>328.2</ele>
        <time>2017-01-08T12:45:43Z</time>
      </trkpt>
      <trkpt lat="43.55951" lon="6.01662">
        <ele>328.4</ele>
        <time>2017-01-08T12:45:52Z</time>
      </trkpt>
      <trkpt lat="43.55947" lon="6.0165">
        <ele>328.5</ele>
        <time>2017-01-08T12:46:00Z</time>
      </trkpt>
      <trkpt lat="43.55943" lon="6.01638">
        <ele>328.5</ele>
        <time>2017-01-08T12:46:08Z</time>
      </trkpt>
      <trkpt lat="43.55942" lon="6.01624">
        <ele>328.3</ele>
        <time>2017-01-08T12:46:20Z</time>
      </trkpt>
      <trkpt lat="43.55937" lon="6.01611">
        <ele>328.2</ele>
        <time>2017-01-08T12:46:29Z</time>
      </trkpt>
      <trkpt lat="43.55935" lon="6.01599">
        <ele>328.1</ele>
        <time>2017-01-08T12:46:39Z</time>
      </trkpt>
      <trkpt lat="43.5594" lon="6.01589">
        <ele>328.1</ele>
        <time>2017-01-08T12:46:55Z</time>
      </trkpt>
      <trkpt lat="43.55936" lon="6.01577">
        <ele>327.4</ele>
        <time>2017-01-08T12:47:55Z</time>
      </trkpt>
      <trkpt lat="43.55935" lon="6.01589">
        <ele>327.3</ele>
        <time>2017-01-08T12:48:39Z</time>
      </trkpt>
      <trkpt lat="43.55934" lon="6.01602">
        <ele>326.9</ele>
        <time>2017-01-08T12:48:47Z</time>
      </trkpt>
      <trkpt lat="43.55927" lon="6.01595">
        <ele>329.7</ele>
        <time>2017-01-08T12:49:17Z</time>
      </trkpt>
      <trkpt lat="43.55921" lon="6.01586">
        <ele>330.5</ele>
        <time>2017-01-08T12:49:56Z</time>
      </trkpt>
      <trkpt lat="43.55916" lon="6.01574">
        <ele>330.6</ele>
        <time>2017-01-08T12:50:08Z</time>
      </trkpt>
      <trkpt lat="43.55912" lon="6.01562">
        <ele>330.6</ele>
        <time>2017-01-08T12:50:21Z</time>
      </trkpt>
      <trkpt lat="43.55907" lon="6.01551">
        <ele>330.3</ele>
        <time>2017-01-08T12:50:59Z</time>
      </trkpt>
      <trkpt lat="43.55901" lon="6.01539">
        <ele>330.4</ele>
        <time>2017-01-08T12:51:08Z</time>
      </trkpt>
      <trkpt lat="43.55896" lon="6.01528">
        <ele>330.4</ele>
        <time>2017-01-08T12:51:26Z</time>
      </trkpt>
      <trkpt lat="43.55888" lon="6.01521">
        <ele>330.4</ele>
        <time>2017-01-08T12:51:34Z</time>
      </trkpt>
      <trkpt lat="43.55879" lon="6.01516">
        <ele>330.5</ele>
        <time>2017-01-08T12:51:41Z</time>
      </trkpt>
      <trkpt lat="43.5587" lon="6.01514">
        <ele>330.5</ele>
        <time>2017-01-08T12:51:53Z</time>
      </trkpt>
      <trkpt lat="43.55862" lon="6.01507">
        <ele>329.8</ele>
        <time>2017-01-08T12:52:03Z</time>
      </trkpt>
      <trkpt lat="43.55853" lon="6.01502">
        <ele>329.1</ele>
        <time>2017-01-08T12:52:22Z</time>
      </trkpt>
      <trkpt lat="43.55844" lon="6.01507">
        <ele>329</ele>
        <time>2017-01-08T12:52:30Z</time>
      </trkpt>
      <trkpt lat="43.55835" lon="6.01509">
        <ele>329</ele>
        <time>2017-01-08T12:52:50Z</time>
      </trkpt>
      <trkpt lat="43.55828" lon="6.01518">
        <ele>329.4</ele>
        <time>2017-01-08T12:53:35Z</time>
      </trkpt>
      <trkpt lat="43.55819" lon="6.01516">
        <ele>329.8</ele>
        <time>2017-01-08T12:54:34Z</time>
      </trkpt>
      <trkpt lat="43.55812" lon="6.0151">
        <ele>329.9</ele>
        <time>2017-01-08T12:54:44Z</time>
      </trkpt>
      <trkpt lat="43.55804" lon="6.01503">
        <ele>330</ele>
        <time>2017-01-08T12:54:58Z</time>
      </trkpt>
      <trkpt lat="43.55795" lon="6.01498">
        <ele>330</ele>
        <time>2017-01-08T12:55:10Z</time>
      </trkpt>
      <trkpt lat="43.55785" lon="6.01496">
        <ele>330</ele>
        <time>2017-01-08T12:55:20Z</time>
      </trkpt>
      <trkpt lat="43.55776" lon="6.01493">
        <ele>329.7</ele>
        <time>2017-01-08T12:55:29Z</time>
      </trkpt>
      <trkpt lat="43.55767" lon="6.01487">
        <ele>329.3</ele>
        <time>2017-01-08T12:55:44Z</time>
      </trkpt>
      <trkpt lat="43.55758" lon="6.01489">
        <ele>328.9</ele>
        <time>2017-01-08T12:55:54Z</time>
      </trkpt>
      <trkpt lat="43.55749" lon="6.01488">
        <ele>328.7</ele>
        <time>2017-01-08T12:56:04Z</time>
      </trkpt>
      <trkpt lat="43.5574" lon="6.01492">
        <ele>328.6</ele>
        <time>2017-01-08T12:56:22Z</time>
      </trkpt>
      <trkpt lat="43.55731" lon="6.01486">
        <ele>328.7</ele>
        <time>2017-01-08T12:56:30Z</time>
      </trkpt>
      <trkpt lat="43.55721" lon="6.01483">
        <ele>328.9</ele>
        <time>2017-01-08T12:56:39Z</time>
      </trkpt>
      <trkpt lat="43.55713" lon="6.01476">
        <ele>328.9</ele>
        <time>2017-01-08T12:56:47Z</time>
      </trkpt>
      <trkpt lat="43.55707" lon="6.01466">
        <ele>328.5</ele>
        <time>2017-01-08T12:56:57Z</time>
      </trkpt>
      <trkpt lat="43.557" lon="6.01456">
        <ele>328</ele>
        <time>2017-01-08T12:57:06Z</time>
      </trkpt>
      <trkpt lat="43.55692" lon="6.0145">
        <ele>327.7</ele>
        <time>2017-01-08T12:57:12Z</time>
      </trkpt>
      <trkpt lat="43.55691" lon="6.01438">
        <ele>327.5</ele>
        <time>2017-01-08T12:57:21Z</time>
      </trkpt>
      <trkpt lat="43.55695" lon="6.01426">
        <ele>327.3</ele>
        <time>2017-01-08T12:57:28Z</time>
      </trkpt>
      <trkpt lat="43.55698" lon="6.01414">
        <ele>326.9</ele>
        <time>2017-01-08T12:57:35Z</time>
      </trkpt>
      <trkpt lat="43.55698" lon="6.014">
        <ele>326.4</ele>
        <time>2017-01-08T12:57:44Z</time>
      </trkpt>
      <trkpt lat="43.55702" lon="6.01389">
        <ele>325.8</ele>
        <time>2017-01-08T12:58:03Z</time>
      </trkpt>
      <trkpt lat="43.55705" lon="6.01377">
        <ele>322.7</ele>
        <time>2017-01-08T12:59:25Z</time>
      </trkpt>
      <trkpt lat="43.55696" lon="6.01375">
        <ele>320.4</ele>
        <time>2017-01-08T12:59:40Z</time>
      </trkpt>
      <trkpt lat="43.5569" lon="6.01366">
        <ele>319.1</ele>
        <time>2017-01-08T12:59:51Z</time>
      </trkpt>
      <trkpt lat="43.55683" lon="6.01355">
        <ele>318.4</ele>
        <time>2017-01-08T13:00:00Z</time>
      </trkpt>
      <trkpt lat="43.55674" lon="6.01361">
        <ele>317.5</ele>
        <time>2017-01-08T13:00:13Z</time>
      </trkpt>
      <trkpt lat="43.55668" lon="6.01371">
        <ele>316.5</ele>
        <time>2017-01-08T13:00:22Z</time>
      </trkpt>
      <trkpt lat="43.55665" lon="6.01382">
        <ele>316</ele>
        <time>2017-01-08T13:00:32Z</time>
      </trkpt>
      <trkpt lat="43.55655" lon="6.01383">
        <ele>315.4</ele>
        <time>2017-01-08T13:00:42Z</time>
      </trkpt>
      <trkpt lat="43.55647" lon="6.01374">
        <ele>313.7</ele>
        <time>2017-01-08T13:00:54Z</time>
      </trkpt>
      <trkpt lat="43.55638" lon="6.01377">
        <ele>308.3</ele>
        <time>2017-01-08T13:01:22Z</time>
      </trkpt>
      <trkpt lat="43.55646" lon="6.01369">
        <ele>303.3</ele>
        <time>2017-01-08T13:01:56Z</time>
      </trkpt>
      <trkpt lat="43.55654" lon="6.01364">
        <ele>300.2</ele>
        <time>2017-01-08T13:02:22Z</time>
      </trkpt>
      <trkpt lat="43.55663" lon="6.01361">
        <ele>297.4</ele>
        <time>2017-01-08T13:02:49Z</time>
      </trkpt>
      <trkpt lat="43.55668" lon="6.01348">
        <ele>295.6</ele>
        <time>2017-01-08T13:03:01Z</time>
      </trkpt>
      <trkpt lat="43.5567" lon="6.01336">
        <ele>292.9</ele>
        <time>2017-01-08T13:03:21Z</time>
      </trkpt>
      <trkpt lat="43.55679" lon="6.01332">
        <ele>290.4</ele>
        <time>2017-01-08T13:03:56Z</time>
      </trkpt>
      <trkpt lat="43.55681" lon="6.01319">
        <ele>287.4</ele>
        <time>2017-01-08T13:04:32Z</time>
      </trkpt>
      <trkpt lat="43.5569" lon="6.01316">
        <ele>284.5</ele>
        <time>2017-01-08T13:05:07Z</time>
      </trkpt>
      <trkpt lat="43.55698" lon="6.01321">
        <ele>284</ele>
        <time>2017-01-08T13:05:55Z</time>
      </trkpt>
      <trkpt lat="43.55708" lon="6.01319">
        <ele>284.3</ele>
        <time>2017-01-08T13:06:11Z</time>
      </trkpt>
      <trkpt lat="43.55715" lon="6.01311">
        <ele>284.3</ele>
        <time>2017-01-08T13:07:10Z</time>
      </trkpt>
      <trkpt lat="43.55706" lon="6.01308">
        <ele>284.3</ele>
        <time>2017-01-08T13:07:30Z</time>
      </trkpt>
      <trkpt lat="43.55697" lon="6.0131">
        <ele>284.2</ele>
        <time>2017-01-08T13:07:36Z</time>
      </trkpt>
      <trkpt lat="43.55687" lon="6.01316">
        <ele>284.6</ele>
        <time>2017-01-08T13:08:14Z</time>
      </trkpt>
      <trkpt lat="43.5568" lon="6.01326">
        <ele>284.7</ele>
        <time>2017-01-08T13:08:20Z</time>
      </trkpt>
      <trkpt lat="43.55671" lon="6.01322">
        <ele>285</ele>
        <time>2017-01-08T13:08:42Z</time>
      </trkpt>
      <trkpt lat="43.55662" lon="6.01324">
        <ele>285</ele>
        <time>2017-01-08T13:08:49Z</time>
      </trkpt>
      <trkpt lat="43.55652" lon="6.01326">
        <ele>285.4</ele>
        <time>2017-01-08T13:09:29Z</time>
      </trkpt>
      <trkpt lat="43.55655" lon="6.01338">
        <ele>286.8</ele>
        <time>2017-01-08T13:09:52Z</time>
      </trkpt>
      <trkpt lat="43.55665" lon="6.01338">
        <ele>288</ele>
        <time>2017-01-08T13:10:03Z</time>
      </trkpt>
      <trkpt lat="43.55661" lon="6.01349">
        <ele>289.6</ele>
        <time>2017-01-08T13:10:49Z</time>
      </trkpt>
      <trkpt lat="43.55656" lon="6.01338">
        <ele>289.8</ele>
        <time>2017-01-08T13:11:41Z</time>
      </trkpt>
      <trkpt lat="43.55659" lon="6.01326">
        <ele>289.7</ele>
        <time>2017-01-08T13:11:52Z</time>
      </trkpt>
      <trkpt lat="43.55654" lon="6.01339">
        <ele>289.6</ele>
        <time>2017-01-08T13:12:12Z</time>
      </trkpt>
      <trkpt lat="43.55655" lon="6.01326">
        <ele>289.4</ele>
        <time>2017-01-08T13:12:39Z</time>
      </trkpt>
      <trkpt lat="43.55657" lon="6.01313">
        <ele>288.7</ele>
        <time>2017-01-08T13:12:51Z</time>
      </trkpt>
      <trkpt lat="43.55659" lon="6.01301">
        <ele>287</ele>
        <time>2017-01-08T13:13:04Z</time>
      </trkpt>
      <trkpt lat="43.55659" lon="6.01288">
        <ele>283.8</ele>
        <time>2017-01-08T13:13:32Z</time>
      </trkpt>
      <trkpt lat="43.55651" lon="6.01281">
        <ele>283.3</ele>
        <time>2017-01-08T13:13:53Z</time>
      </trkpt>
      <trkpt lat="43.55642" lon="6.01277">
        <ele>282.8</ele>
        <time>2017-01-08T13:14:18Z</time>
      </trkpt>
      <trkpt lat="43.55636" lon="6.01286">
        <ele>281.8</ele>
        <time>2017-01-08T13:15:17Z</time>
      </trkpt>
      <trkpt lat="43.55645" lon="6.01291">
        <ele>283.9</ele>
        <time>2017-01-08T13:15:41Z</time>
      </trkpt>
      <trkpt lat="43.55654" lon="6.01288">
        <ele>282.3</ele>
        <time>2017-01-08T13:16:15Z</time>
      </trkpt>
      <trkpt lat="43.55653" lon="6.01275">
        <ele>283.7</ele>
        <time>2017-01-08T13:17:02Z</time>
      </trkpt>
      <trkpt lat="43.55658" lon="6.01263">
        <ele>284.3</ele>
        <time>2017-01-08T13:17:10Z</time>
      </trkpt>
      <trkpt lat="43.55663" lon="6.01253">
        <ele>285.2</ele>
        <time>2017-01-08T13:17:19Z</time>
      </trkpt>
      <trkpt lat="43.55669" lon="6.01241">
        <ele>288</ele>
        <time>2017-01-08T13:17:46Z</time>
      </trkpt>
      <trkpt lat="43.55669" lon="6.01228">
        <ele>288.8</ele>
        <time>2017-01-08T13:18:08Z</time>
      </trkpt>
      <trkpt lat="43.55663" lon="6.01217">
        <ele>287.4</ele>
        <time>2017-01-08T13:18:28Z</time>
      </trkpt>
      <trkpt lat="43.55661" lon="6.01204">
        <ele>285.1</ele>
        <time>2017-01-08T13:18:43Z</time>
      </trkpt>
      <trkpt lat="43.55662" lon="6.01191">
        <ele>281.2</ele>
        <time>2017-01-08T13:19:08Z</time>
      </trkpt>
      <trkpt lat="43.55655" lon="6.01199">
        <ele>279.5</ele>
        <time>2017-01-08T13:19:25Z</time>
      </trkpt>
      <trkpt lat="43.55654" lon="6.01212">
        <ele>277.9</ele>
        <time>2017-01-08T13:19:37Z</time>
      </trkpt>
      <trkpt lat="43.55648" lon="6.01223">
        <ele>274</ele>
        <time>2017-01-08T13:20:17Z</time>
      </trkpt>
      <trkpt lat="43.5564" lon="6.01228">
        <ele>272.4</ele>
        <time>2017-01-08T13:20:54Z</time>
      </trkpt>
      <trkpt lat="43.55648" lon="6.01232">
        <ele>272.2</ele>
        <time>2017-01-08T13:21:12Z</time>
      </trkpt>
      <trkpt lat="43.55653" lon="6.01243">
        <ele>272.3</ele>
        <time>2017-01-08T13:21:28Z</time>
      </trkpt>
      <trkpt lat="43.55661" lon="6.01236">
        <ele>272.6</ele>
        <time>2017-01-08T13:21:58Z</time>
      </trkpt>
      <trkpt lat="43.55651" lon="6.01235">
        <ele>272.2</ele>
        <time>2017-01-08T13:22:18Z</time>
      </trkpt>
      <trkpt lat="43.55655" lon="6.01223">
        <ele>273.5</ele>
        <time>2017-01-08T13:22:51Z</time>
      </trkpt>
      <trkpt lat="43.5566" lon="6.01212">
        <ele>274.4</ele>
        <time>2017-01-08T13:22:58Z</time>
      </trkpt>
      <trkpt lat="43.55659" lon="6.01198">
        <ele>276.2</ele>
        <time>2017-01-08T13:23:11Z</time>
      </trkpt>
      <trkpt lat="43.55655" lon="6.0121">
        <ele>277.9</ele>
        <time>2017-01-08T13:23:31Z</time>
      </trkpt>
      <trkpt lat="43.55658" lon="6.01224">
        <ele>284.8</ele>
        <time>2017-01-08T13:24:19Z</time>
      </trkpt>
      <trkpt lat="43.55662" lon="6.01235">
        <ele>286.1</ele>
        <time>2017-01-08T13:24:29Z</time>
      </trkpt>
      <trkpt lat="43.55665" lon="6.01223">
        <ele>289.2</ele>
        <time>2017-01-08T13:24:55Z</time>
      </trkpt>
      <trkpt lat="43.55668" lon="6.0121">
        <ele>291</ele>
        <time>2017-01-08T13:25:07Z</time>
      </trkpt>
      <trkpt lat="43.55677" lon="6.01211">
        <ele>293.8</ele>
        <time>2017-01-08T13:25:54Z</time>
      </trkpt>
      <trkpt lat="43.5567" lon="6.01219">
        <ele>294.1</ele>
        <time>2017-01-08T13:26:28Z</time>
      </trkpt>
      <trkpt lat="43.55676" lon="6.01209">
        <ele>294.2</ele>
        <time>2017-01-08T13:27:08Z</time>
      </trkpt>
      <trkpt lat="43.55683" lon="6.012">
        <ele>294.3</ele>
        <time>2017-01-08T13:27:17Z</time>
      </trkpt>
      <trkpt lat="43.55688" lon="6.01188">
        <ele>294.6</ele>
        <time>2017-01-08T13:27:28Z</time>
      </trkpt>
      <trkpt lat="43.55691" lon="6.01176">
        <ele>295.2</ele>
        <time>2017-01-08T13:27:38Z</time>
      </trkpt>
      <trkpt lat="43.55692" lon="6.01163">
        <ele>295.6</ele>
        <time>2017-01-08T13:27:48Z</time>
      </trkpt>
      <trkpt lat="43.55696" lon="6.01151">
        <ele>296</ele>
        <time>2017-01-08T13:27:57Z</time>
      </trkpt>
      <trkpt lat="43.55702" lon="6.01141">
        <ele>296.4</ele>
        <time>2017-01-08T13:28:06Z</time>
      </trkpt>
      <trkpt lat="43.5571" lon="6.01132">
        <ele>296.9</ele>
        <time>2017-01-08T13:28:15Z</time>
      </trkpt>
      <trkpt lat="43.55719" lon="6.01131">
        <ele>297.6</ele>
        <time>2017-01-08T13:28:24Z</time>
      </trkpt>
      <trkpt lat="43.55728" lon="6.01131">
        <ele>298.5</ele>
        <time>2017-01-08T13:28:34Z</time>
      </trkpt>
      <trkpt lat="43.55738" lon="6.01127">
        <ele>298.8</ele>
        <time>2017-01-08T13:28:39Z</time>
      </trkpt>
      <trkpt lat="43.55746" lon="6.01121">
        <ele>299.9</ele>
        <time>2017-01-08T13:29:01Z</time>
      </trkpt>
      <trkpt lat="43.55755" lon="6.01119">
        <ele>300.4</ele>
        <time>2017-01-08T13:29:13Z</time>
      </trkpt>
      <trkpt lat="43.55762" lon="6.01109">
        <ele>300.8</ele>
        <time>2017-01-08T13:29:19Z</time>
      </trkpt>
      <trkpt lat="43.55766" lon="6.01096">
        <ele>301.1</ele>
        <time>2017-01-08T13:29:27Z</time>
      </trkpt>
      <trkpt lat="43.55774" lon="6.01089">
        <ele>301.1</ele>
        <time>2017-01-08T13:29:36Z</time>
      </trkpt>
      <trkpt lat="43.55783" lon="6.01087">
        <ele>300.9</ele>
        <time>2017-01-08T13:29:42Z</time>
      </trkpt>
      <trkpt lat="43.55792" lon="6.01087">
        <ele>301.2</ele>
        <time>2017-01-08T13:29:51Z</time>
      </trkpt>
      <trkpt lat="43.55802" lon="6.01083">
        <ele>301.4</ele>
        <time>2017-01-08T13:30:00Z</time>
      </trkpt>
      <trkpt lat="43.55811" lon="6.0108">
        <ele>301.5</ele>
        <time>2017-01-08T13:30:12Z</time>
      </trkpt>
      <trkpt lat="43.55821" lon="6.01077">
        <ele>301.6</ele>
        <time>2017-01-08T13:30:20Z</time>
      </trkpt>
      <trkpt lat="43.55829" lon="6.01072">
        <ele>302.4</ele>
        <time>2017-01-08T13:30:35Z</time>
      </trkpt>
      <trkpt lat="43.55838" lon="6.01067">
        <ele>302.9</ele>
        <time>2017-01-08T13:30:52Z</time>
      </trkpt>
      <trkpt lat="43.55837" lon="6.01054">
        <ele>302.9</ele>
        <time>2017-01-08T13:31:03Z</time>
      </trkpt>
      <trkpt lat="43.55834" lon="6.01042">
        <ele>302.7</ele>
        <time>2017-01-08T13:31:13Z</time>
      </trkpt>
      <trkpt lat="43.55835" lon="6.01029">
        <ele>302.4</ele>
        <time>2017-01-08T13:31:21Z</time>
      </trkpt>
      <trkpt lat="43.55834" lon="6.01016">
        <ele>301.9</ele>
        <time>2017-01-08T13:31:31Z</time>
      </trkpt>
      <trkpt lat="43.55834" lon="6.01004">
        <ele>301.2</ele>
        <time>2017-01-08T13:31:40Z</time>
      </trkpt>
      <trkpt lat="43.55837" lon="6.00992">
        <ele>300.4</ele>
        <time>2017-01-08T13:31:49Z</time>
      </trkpt>
      <trkpt lat="43.55835" lon="6.00978">
        <ele>299.3</ele>
        <time>2017-01-08T13:32:01Z</time>
      </trkpt>
      <trkpt lat="43.55833" lon="6.00965">
        <ele>298.6</ele>
        <time>2017-01-08T13:32:10Z</time>
      </trkpt>
      <trkpt lat="43.55827" lon="6.00954">
        <ele>297</ele>
        <time>2017-01-08T13:32:19Z</time>
      </trkpt>
      <trkpt lat="43.55815" lon="6.00955">
        <ele>295</ele>
        <time>2017-01-08T13:33:43Z</time>
      </trkpt>
      <trkpt lat="43.55811" lon="6.00969">
        <ele>294</ele>
        <time>2017-01-08T13:33:59Z</time>
      </trkpt>
      <trkpt lat="43.55829" lon="6.00938">
        <ele>294.4</ele>
        <time>2017-01-08T13:34:04Z</time>
      </trkpt>
      <trkpt lat="43.55825" lon="6.00949">
        <ele>294.3</ele>
        <time>2017-01-08T13:34:25Z</time>
      </trkpt>
      <trkpt lat="43.55819" lon="6.0096">
        <ele>295.7</ele>
        <time>2017-01-08T13:34:58Z</time>
      </trkpt>
      <trkpt lat="43.55822" lon="6.00948">
        <ele>295.4</ele>
        <time>2017-01-08T13:35:27Z</time>
      </trkpt>
      <trkpt lat="43.55822" lon="6.00934">
        <ele>295</ele>
        <time>2017-01-08T13:35:35Z</time>
      </trkpt>
      <trkpt lat="43.55828" lon="6.00924">
        <ele>295</ele>
        <time>2017-01-08T13:36:00Z</time>
      </trkpt>
      <trkpt lat="43.55837" lon="6.00919">
        <ele>293.3</ele>
        <time>2017-01-08T13:36:49Z</time>
      </trkpt>
      <trkpt lat="43.55843" lon="6.0091">
        <ele>291.8</ele>
        <time>2017-01-08T13:37:15Z</time>
      </trkpt>
      <trkpt lat="43.55841" lon="6.00897">
        <ele>289.6</ele>
        <time>2017-01-08T13:37:38Z</time>
      </trkpt>
      <trkpt lat="43.55837" lon="6.00886">
        <ele>287.6</ele>
        <time>2017-01-08T13:37:55Z</time>
      </trkpt>
      <trkpt lat="43.55833" lon="6.00873">
        <ele>284.3</ele>
        <time>2017-01-08T13:38:18Z</time>
      </trkpt>
      <trkpt lat="43.55824" lon="6.00877">
        <ele>282.6</ele>
        <time>2017-01-08T13:38:29Z</time>
      </trkpt>
      <trkpt lat="43.55815" lon="6.00881">
        <ele>281.3</ele>
        <time>2017-01-08T13:38:42Z</time>
      </trkpt>
      <trkpt lat="43.55808" lon="6.00871">
        <ele>277.6</ele>
        <time>2017-01-08T13:40:37Z</time>
      </trkpt>
      <trkpt lat="43.55807" lon="6.00858">
        <ele>276.6</ele>
        <time>2017-01-08T13:40:48Z</time>
      </trkpt>
      <trkpt lat="43.558" lon="6.00849">
        <ele>275.3</ele>
        <time>2017-01-08T13:41:02Z</time>
      </trkpt>
      <trkpt lat="43.55794" lon="6.00858">
        <ele>273.3</ele>
        <time>2017-01-08T13:41:35Z</time>
      </trkpt>
      <trkpt lat="43.55791" lon="6.00846">
        <ele>270.9</ele>
        <time>2017-01-08T13:43:37Z</time>
      </trkpt>
      <trkpt lat="43.55787" lon="6.00834">
        <ele>270.1</ele>
        <time>2017-01-08T13:43:45Z</time>
      </trkpt>
      <trkpt lat="43.55781" lon="6.00824">
        <ele>269.2</ele>
        <time>2017-01-08T13:43:53Z</time>
      </trkpt>
      <trkpt lat="43.55777" lon="6.00813">
        <ele>267</ele>
        <time>2017-01-08T13:44:09Z</time>
      </trkpt>
      <trkpt lat="43.55767" lon="6.00813">
        <ele>262</ele>
        <time>2017-01-08T13:48:29Z</time>
      </trkpt>
      <trkpt lat="43.55746" lon="6.00808">
        <ele>261</ele>
        <time>2017-01-08T13:49:19Z</time>
      </trkpt>
      <trkpt lat="43.55739" lon="6.00819">
        <ele>261.5</ele>
        <time>2017-01-08T13:49:24Z</time>
      </trkpt>
      <trkpt lat="43.55739" lon="6.00805">
        <ele>260.9</ele>
        <time>2017-01-08T13:49:44Z</time>
      </trkpt>
      <trkpt lat="43.55746" lon="6.00795">
        <ele>260.9</ele>
        <time>2017-01-08T13:49:50Z</time>
      </trkpt>
      <trkpt lat="43.55751" lon="6.00784">
        <ele>260.8</ele>
        <time>2017-01-08T13:49:57Z</time>
      </trkpt>
      <trkpt lat="43.55753" lon="6.00771">
        <ele>260.8</ele>
        <time>2017-01-08T13:50:08Z</time>
      </trkpt>
      <trkpt lat="43.55756" lon="6.00759">
        <ele>261.2</ele>
        <time>2017-01-08T13:50:28Z</time>
      </trkpt>
      <trkpt lat="43.5576" lon="6.00748">
        <ele>261.9</ele>
        <time>2017-01-08T13:50:49Z</time>
      </trkpt>
      <trkpt lat="43.55768" lon="6.00741">
        <ele>262.1</ele>
        <time>2017-01-08T13:50:56Z</time>
      </trkpt>
      <trkpt lat="43.55763" lon="6.00729">
        <ele>262.2</ele>
        <time>2017-01-08T13:51:05Z</time>
      </trkpt>
      <trkpt lat="43.55767" lon="6.00718">
        <ele>261.7</ele>
        <time>2017-01-08T13:51:13Z</time>
      </trkpt>
      <trkpt lat="43.55761" lon="6.00707">
        <ele>262</ele>
        <time>2017-01-08T13:51:22Z</time>
      </trkpt>
      <trkpt lat="43.55761" lon="6.00694">
        <ele>262.4</ele>
        <time>2017-01-08T13:51:33Z</time>
      </trkpt>
      <trkpt lat="43.55763" lon="6.00679">
        <ele>262.5</ele>
        <time>2017-01-08T13:51:45Z</time>
      </trkpt>
      <trkpt lat="43.55758" lon="6.00666">
        <ele>262.6</ele>
        <time>2017-01-08T13:51:58Z</time>
      </trkpt>
      <trkpt lat="43.55751" lon="6.00656">
        <ele>262.8</ele>
        <time>2017-01-08T13:52:08Z</time>
      </trkpt>
      <trkpt lat="43.55745" lon="6.00646">
        <ele>262.6</ele>
        <time>2017-01-08T13:52:19Z</time>
      </trkpt>
      <trkpt lat="43.55745" lon="6.00633">
        <ele>262.1</ele>
        <time>2017-01-08T13:52:34Z</time>
      </trkpt>
      <trkpt lat="43.55752" lon="6.00621">
        <ele>262.1</ele>
        <time>2017-01-08T13:52:41Z</time>
      </trkpt>
      <trkpt lat="43.55752" lon="6.00609">
        <ele>261.5</ele>
        <time>2017-01-08T13:52:51Z</time>
      </trkpt>
      <trkpt lat="43.55762" lon="6.00611">
        <ele>260.9</ele>
        <time>2017-01-08T13:53:10Z</time>
      </trkpt>
      <trkpt lat="43.5576" lon="6.00598">
        <ele>261.2</ele>
        <time>2017-01-08T13:55:39Z</time>
      </trkpt>
      <trkpt lat="43.55759" lon="6.00585">
        <ele>261.2</ele>
        <time>2017-01-08T13:55:48Z</time>
      </trkpt>
      <trkpt lat="43.55765" lon="6.00575">
        <ele>261.2</ele>
        <time>2017-01-08T13:55:55Z</time>
      </trkpt>
      <trkpt lat="43.55773" lon="6.00567">
        <ele>260.9</ele>
        <time>2017-01-08T13:56:02Z</time>
      </trkpt>
      <trkpt lat="43.5578" lon="6.00557">
        <ele>260.9</ele>
        <time>2017-01-08T13:56:12Z</time>
      </trkpt>
      <trkpt lat="43.55788" lon="6.00549">
        <ele>261.1</ele>
        <time>2017-01-08T13:56:21Z</time>
      </trkpt>
      <trkpt lat="43.55795" lon="6.00541">
        <ele>261.6</ele>
        <time>2017-01-08T13:56:30Z</time>
      </trkpt>
      <trkpt lat="43.55804" lon="6.00536">
        <ele>261.8</ele>
        <time>2017-01-08T13:56:36Z</time>
      </trkpt>
      <trkpt lat="43.55813" lon="6.0053">
        <ele>262</ele>
        <time>2017-01-08T13:56:42Z</time>
      </trkpt>
      <trkpt lat="43.5582" lon="6.00522">
        <ele>262.5</ele>
        <time>2017-01-08T13:56:52Z</time>
      </trkpt>
      <trkpt lat="43.55827" lon="6.00512">
        <ele>262.7</ele>
        <time>2017-01-08T13:57:01Z</time>
      </trkpt>
      <trkpt lat="43.55834" lon="6.00505">
        <ele>262.8</ele>
        <time>2017-01-08T13:57:08Z</time>
      </trkpt>
      <trkpt lat="43.55844" lon="6.005">
        <ele>263</ele>
        <time>2017-01-08T13:57:15Z</time>
      </trkpt>
      <trkpt lat="43.55852" lon="6.00494">
        <ele>263.3</ele>
        <time>2017-01-08T13:57:26Z</time>
      </trkpt>
      <trkpt lat="43.5586" lon="6.00489">
        <ele>263.6</ele>
        <time>2017-01-08T13:57:34Z</time>
      </trkpt>
      <trkpt lat="43.55865" lon="6.00478">
        <ele>264</ele>
        <time>2017-01-08T13:57:41Z</time>
      </trkpt>
      <trkpt lat="43.55861" lon="6.00467">
        <ele>264.4</ele>
        <time>2017-01-08T13:58:06Z</time>
      </trkpt>
      <trkpt lat="43.55868" lon="6.00458">
        <ele>263.8</ele>
        <time>2017-01-08T14:00:14Z</time>
      </trkpt>
      <trkpt lat="43.55862" lon="6.00469">
        <ele>264.8</ele>
        <time>2017-01-08T14:01:56Z</time>
      </trkpt>
      <trkpt lat="43.55858" lon="6.00481">
        <ele>263.8</ele>
        <time>2017-01-08T14:04:43Z</time>
      </trkpt>
      <trkpt lat="43.55849" lon="6.00487">
        <ele>263.9</ele>
        <time>2017-01-08T14:04:50Z</time>
      </trkpt>
      <trkpt lat="43.55857" lon="6.00479">
        <ele>263.8</ele>
        <time>2017-01-08T14:05:52Z</time>
      </trkpt>
      <trkpt lat="43.55848" lon="6.00484">
        <ele>263.8</ele>
        <time>2017-01-08T14:06:14Z</time>
      </trkpt>
      <trkpt lat="43.55839" lon="6.00485">
        <ele>263.8</ele>
        <time>2017-01-08T14:06:26Z</time>
      </trkpt>
      <trkpt lat="43.5583" lon="6.00487">
        <ele>263.8</ele>
        <time>2017-01-08T14:06:35Z</time>
      </trkpt>
      <trkpt lat="43.55821" lon="6.00492">
        <ele>263.7</ele>
        <time>2017-01-08T14:06:58Z</time>
      </trkpt>
      <trkpt lat="43.55816" lon="6.00503">
        <ele>263.5</ele>
        <time>2017-01-08T14:07:13Z</time>
      </trkpt>
      <trkpt lat="43.55808" lon="6.0051">
        <ele>263.4</ele>
        <time>2017-01-08T14:07:26Z</time>
      </trkpt>
      <trkpt lat="43.55801" lon="6.00519">
        <ele>263.3</ele>
        <time>2017-01-08T14:07:40Z</time>
      </trkpt>
      <trkpt lat="43.55794" lon="6.00528">
        <ele>263</ele>
        <time>2017-01-08T14:07:54Z</time>
      </trkpt>
      <trkpt lat="43.55786" lon="6.00532">
        <ele>262.8</ele>
        <time>2017-01-08T14:08:08Z</time>
      </trkpt>
      <trkpt lat="43.55777" lon="6.00536">
        <ele>262.7</ele>
        <time>2017-01-08T14:08:18Z</time>
      </trkpt>
      <trkpt lat="43.55768" lon="6.00532">
        <ele>262.6</ele>
        <time>2017-01-08T14:08:36Z</time>
      </trkpt>
      <trkpt lat="43.55758" lon="6.00534">
        <ele>262.1</ele>
        <time>2017-01-08T14:10:51Z</time>
      </trkpt>
      <trkpt lat="43.55759" lon="6.00546">
        <ele>261.5</ele>
        <time>2017-01-08T14:11:25Z</time>
      </trkpt>
      <trkpt lat="43.55759" lon="6.00558">
        <ele>261.5</ele>
        <time>2017-01-08T14:11:45Z</time>
      </trkpt>
      <trkpt lat="43.55755" lon="6.0057">
        <ele>261.3</ele>
        <time>2017-01-08T14:11:55Z</time>
      </trkpt>
      <trkpt lat="43.55747" lon="6.00577">
        <ele>261.2</ele>
        <time>2017-01-08T14:12:05Z</time>
      </trkpt>
      <trkpt lat="43.5575" lon="6.00589">
        <ele>260.3</ele>
        <time>2017-01-08T14:12:26Z</time>
      </trkpt>
      <trkpt lat="43.55758" lon="6.00597">
        <ele>260</ele>
        <time>2017-01-08T14:12:49Z</time>
      </trkpt>
      <trkpt lat="43.55762" lon="6.00608">
        <ele>260</ele>
        <time>2017-01-08T14:13:05Z</time>
      </trkpt>
      <trkpt lat="43.55771" lon="6.00614">
        <ele>260</ele>
        <time>2017-01-08T14:13:18Z</time>
      </trkpt>
      <trkpt lat="43.55768" lon="6.00627">
        <ele>260.3</ele>
        <time>2017-01-08T14:13:28Z</time>
      </trkpt>
      <trkpt lat="43.55765" lon="6.00639">
        <ele>260.5</ele>
        <time>2017-01-08T14:13:39Z</time>
      </trkpt>
      <trkpt lat="43.55774" lon="6.00635">
        <ele>261.7</ele>
        <time>2017-01-08T14:14:03Z</time>
      </trkpt>
      <trkpt lat="43.55782" lon="6.0063">
        <ele>261.9</ele>
        <time>2017-01-08T14:14:08Z</time>
      </trkpt>
      <trkpt lat="43.55791" lon="6.00632">
        <ele>262.8</ele>
        <time>2017-01-08T14:14:24Z</time>
      </trkpt>
      <trkpt lat="43.55801" lon="6.00632">
        <ele>263.7</ele>
        <time>2017-01-08T14:14:32Z</time>
      </trkpt>
      <trkpt lat="43.55798" lon="6.00643">
        <ele>265.5</ele>
        <time>2017-01-08T14:14:57Z</time>
      </trkpt>
      <trkpt lat="43.55789" lon="6.0065">
        <ele>265.8</ele>
        <time>2017-01-08T14:15:09Z</time>
      </trkpt>
      <trkpt lat="43.55783" lon="6.0066">
        <ele>265.8</ele>
        <time>2017-01-08T14:15:19Z</time>
      </trkpt>
      <trkpt lat="43.55783" lon="6.00673">
        <ele>265.8</ele>
        <time>2017-01-08T14:15:25Z</time>
      </trkpt>
      <trkpt lat="43.55784" lon="6.00686">
        <ele>265.8</ele>
        <time>2017-01-08T14:15:45Z</time>
      </trkpt>
      <trkpt lat="43.55789" lon="6.00676">
        <ele>265.8</ele>
        <time>2017-01-08T14:16:12Z</time>
      </trkpt>
      <trkpt lat="43.5578" lon="6.0068">
        <ele>265.4</ele>
        <time>2017-01-08T14:16:41Z</time>
      </trkpt>
      <trkpt lat="43.5577" lon="6.00683">
        <ele>264.6</ele>
        <time>2017-01-08T14:16:58Z</time>
      </trkpt>
      <trkpt lat="43.55762" lon="6.00691">
        <ele>263.6</ele>
        <time>2017-01-08T14:17:11Z</time>
      </trkpt>
      <trkpt lat="43.55758" lon="6.00703">
        <ele>262.5</ele>
        <time>2017-01-08T14:17:26Z</time>
      </trkpt>
      <trkpt lat="43.55756" lon="6.00716">
        <ele>262</ele>
        <time>2017-01-08T14:17:40Z</time>
      </trkpt>
      <trkpt lat="43.55755" lon="6.00728">
        <ele>261.8</ele>
        <time>2017-01-08T14:17:48Z</time>
      </trkpt>
      <trkpt lat="43.55753" lon="6.00742">
        <ele>261.6</ele>
        <time>2017-01-08T14:17:57Z</time>
      </trkpt>
      <trkpt lat="43.55751" lon="6.00754">
        <ele>261.4</ele>
        <time>2017-01-08T14:18:09Z</time>
      </trkpt>
      <trkpt lat="43.5576" lon="6.00758">
        <ele>261.2</ele>
        <time>2017-01-08T14:18:52Z</time>
      </trkpt>
      <trkpt lat="43.5575" lon="6.00755">
        <ele>260.6</ele>
        <time>2017-01-08T14:20:12Z</time>
      </trkpt>
      <trkpt lat="43.5574" lon="6.00753">
        <ele>260.3</ele>
        <time>2017-01-08T14:20:32Z</time>
      </trkpt>
      <trkpt lat="43.55731" lon="6.00756">
        <ele>259.9</ele>
        <time>2017-01-08T14:20:47Z</time>
      </trkpt>
      <trkpt lat="43.55722" lon="6.00758">
        <ele>259.5</ele>
        <time>2017-01-08T14:21:01Z</time>
      </trkpt>
      <trkpt lat="43.55713" lon="6.00753">
        <ele>259.2</ele>
        <time>2017-01-08T14:21:12Z</time>
      </trkpt>
      <trkpt lat="43.55703" lon="6.00755">
        <ele>257.3</ele>
        <time>2017-01-08T14:22:53Z</time>
      </trkpt>
      <trkpt lat="43.55694" lon="6.00756">
        <ele>255.8</ele>
        <time>2017-01-08T14:24:07Z</time>
      </trkpt>
      <trkpt lat="43.55687" lon="6.00765">
        <ele>254.9</ele>
        <time>2017-01-08T14:24:36Z</time>
      </trkpt>
      <trkpt lat="43.5568" lon="6.00774">
        <ele>254.7</ele>
        <time>2017-01-08T14:24:51Z</time>
      </trkpt>
      <trkpt lat="43.55675" lon="6.00783">
        <ele>254.6</ele>
        <time>2017-01-08T14:25:18Z</time>
      </trkpt>
      <trkpt lat="43.55671" lon="6.00797">
        <ele>254.4</ele>
        <time>2017-01-08T14:25:27Z</time>
      </trkpt>
      <trkpt lat="43.55665" lon="6.00807">
        <ele>254</ele>
        <time>2017-01-08T14:25:40Z</time>
      </trkpt>
      <trkpt lat="43.55667" lon="6.00821">
        <ele>253.8</ele>
        <time>2017-01-08T14:25:48Z</time>
      </trkpt>
      <trkpt lat="43.55665" lon="6.00833">
        <ele>253.3</ele>
        <time>2017-01-08T14:26:03Z</time>
      </trkpt>
      <trkpt lat="43.5567" lon="6.00844">
        <ele>253.1</ele>
        <time>2017-01-08T14:26:10Z</time>
      </trkpt>
      <trkpt lat="43.55675" lon="6.00855">
        <ele>253</ele>
        <time>2017-01-08T14:26:18Z</time>
      </trkpt>
      <trkpt lat="43.55682" lon="6.00864">
        <ele>252.9</ele>
        <time>2017-01-08T14:26:28Z</time>
      </trkpt>
      <trkpt lat="43.55674" lon="6.00868">
        <ele>253</ele>
        <time>2017-01-08T14:26:40Z</time>
      </trkpt>
      <trkpt lat="43.55665" lon="6.00875">
        <ele>253.1</ele>
        <time>2017-01-08T14:26:47Z</time>
      </trkpt>
      <trkpt lat="43.5566" lon="6.00887">
        <ele>253</ele>
        <time>2017-01-08T14:26:54Z</time>
      </trkpt>
      <trkpt lat="43.55653" lon="6.00895">
        <ele>252.6</ele>
        <time>2017-01-08T14:27:22Z</time>
      </trkpt>
      <trkpt lat="43.55644" lon="6.0089">
        <ele>252.6</ele>
        <time>2017-01-08T14:27:33Z</time>
      </trkpt>
      <trkpt lat="43.55637" lon="6.00882">
        <ele>252</ele>
        <time>2017-01-08T14:28:06Z</time>
      </trkpt>
      <trkpt lat="43.55633" lon="6.00894">
        <ele>251</ele>
        <time>2017-01-08T14:28:36Z</time>
      </trkpt>
      <trkpt lat="43.55629" lon="6.00907">
        <ele>251.1</ele>
        <time>2017-01-08T14:28:46Z</time>
      </trkpt>
      <trkpt lat="43.5562" lon="6.00904">
        <ele>248.9</ele>
        <time>2017-01-08T14:29:05Z</time>
      </trkpt>
      <trkpt lat="43.55612" lon="6.00899">
        <ele>246.9</ele>
        <time>2017-01-08T14:29:21Z</time>
      </trkpt>
      <trkpt lat="43.55603" lon="6.00893">
        <ele>245.8</ele>
        <time>2017-01-08T14:29:30Z</time>
      </trkpt>
      <trkpt lat="43.55597" lon="6.00884">
        <ele>244.4</ele>
        <time>2017-01-08T14:29:39Z</time>
      </trkpt>
      <trkpt lat="43.55589" lon="6.00877">
        <ele>242.6</ele>
        <time>2017-01-08T14:29:51Z</time>
      </trkpt>
      <trkpt lat="43.55578" lon="6.00879">
        <ele>238.8</ele>
        <time>2017-01-08T14:30:29Z</time>
      </trkpt>
      <trkpt lat="43.55569" lon="6.00878">
        <ele>237.9</ele>
        <time>2017-01-08T14:30:38Z</time>
      </trkpt>
      <trkpt lat="43.5556" lon="6.00881">
        <ele>236.5</ele>
        <time>2017-01-08T14:30:48Z</time>
      </trkpt>
      <trkpt lat="43.55566" lon="6.00892">
        <ele>233.4</ele>
        <time>2017-01-08T14:31:30Z</time>
      </trkpt>
      <trkpt lat="43.55576" lon="6.00897">
        <ele>233.5</ele>
        <time>2017-01-08T14:31:40Z</time>
      </trkpt>
      <trkpt lat="43.55581" lon="6.00907">
        <ele>234.1</ele>
        <time>2017-01-08T14:32:18Z</time>
      </trkpt>
      <trkpt lat="43.55588" lon="6.00917">
        <ele>234.5</ele>
        <time>2017-01-08T14:32:29Z</time>
      </trkpt>
      <trkpt lat="43.55597" lon="6.00925">
        <ele>235.3</ele>
        <time>2017-01-08T14:32:49Z</time>
      </trkpt>
      <trkpt lat="43.55606" lon="6.0093">
        <ele>235.7</ele>
        <time>2017-01-08T14:32:56Z</time>
      </trkpt>
      <trkpt lat="43.55614" lon="6.00937">
        <ele>236.5</ele>
        <time>2017-01-08T14:33:05Z</time>
      </trkpt>
      <trkpt lat="43.55622" lon="6.00943">
        <ele>237.8</ele>
        <time>2017-01-08T14:33:16Z</time>
      </trkpt>
      <trkpt lat="43.55627" lon="6.00933">
        <ele>238.9</ele>
        <time>2017-01-08T14:33:32Z</time>
      </trkpt>
      <trkpt lat="43.55624" lon="6.00945">
        <ele>239</ele>
        <time>2017-01-08T14:34:07Z</time>
      </trkpt>
      <trkpt lat="43.55624" lon="6.00957">
        <ele>240.6</ele>
        <time>2017-01-08T14:34:14Z</time>
      </trkpt>
      <trkpt lat="43.55633" lon="6.00955">
        <ele>241.8</ele>
        <time>2017-01-08T14:34:42Z</time>
      </trkpt>
      <trkpt lat="43.55643" lon="6.00948">
        <ele>244</ele>
        <time>2017-01-08T14:35:50Z</time>
      </trkpt>
      <trkpt lat="43.55737" lon="6.00997">
        <ele>247</ele>
        <time>2017-01-08T14:36:35Z</time>
      </trkpt>
      <trkpt lat="43.55691" lon="6.00936">
        <ele>248.3</ele>
        <time>2017-01-08T14:36:41Z</time>
      </trkpt>
      <trkpt lat="43.55688" lon="6.00924">
        <ele>249</ele>
        <time>2017-01-08T14:36:48Z</time>
      </trkpt>
      <trkpt lat="43.55692" lon="6.00914">
        <ele>252.1</ele>
        <time>2017-01-08T14:37:45Z</time>
      </trkpt>
      <trkpt lat="43.55701" lon="6.00921">
        <ele>252.8</ele>
        <time>2017-01-08T14:38:00Z</time>
      </trkpt>
      <trkpt lat="43.5571" lon="6.0092">
        <ele>253.1</ele>
        <time>2017-01-08T14:38:06Z</time>
      </trkpt>
      <trkpt lat="43.55715" lon="6.00906">
        <ele>253</ele>
        <time>2017-01-08T14:38:17Z</time>
      </trkpt>
      <trkpt lat="43.55713" lon="6.00891">
        <ele>254</ele>
        <time>2017-01-08T14:38:28Z</time>
      </trkpt>
      <trkpt lat="43.55696" lon="6.00877">
        <ele>254.2</ele>
        <time>2017-01-08T14:38:33Z</time>
      </trkpt>
      <trkpt lat="43.55706" lon="6.0088">
        <ele>254</ele>
        <time>2017-01-08T14:39:10Z</time>
      </trkpt>
      <trkpt lat="43.55722" lon="6.00884">
        <ele>254</ele>
        <time>2017-01-08T14:39:36Z</time>
      </trkpt>
      <trkpt lat="43.55728" lon="6.00873">
        <ele>255</ele>
        <time>2017-01-08T14:39:50Z</time>
      </trkpt>
      <trkpt lat="43.55721" lon="6.00858">
        <ele>255</ele>
        <time>2017-01-08T14:40:01Z</time>
      </trkpt>
      <trkpt lat="43.55735" lon="6.00855">
        <ele>256</ele>
        <time>2017-01-08T14:40:16Z</time>
      </trkpt>
      <trkpt lat="43.55726" lon="6.0084">
        <ele>256.8</ele>
        <time>2017-01-08T14:40:21Z</time>
      </trkpt>
      <trkpt lat="43.55724" lon="6.00827">
        <ele>257</ele>
        <time>2017-01-08T14:40:29Z</time>
      </trkpt>
      <trkpt lat="43.55727" lon="6.00815">
        <ele>257.2</ele>
        <time>2017-01-08T14:40:41Z</time>
      </trkpt>
      <trkpt lat="43.55739" lon="6.00813">
        <ele>257.3</ele>
        <time>2017-01-08T14:40:59Z</time>
      </trkpt>
      <trkpt lat="43.55748" lon="6.00808">
        <ele>257</ele>
        <time>2017-01-08T14:41:20Z</time>
      </trkpt>
      <trkpt lat="43.55721" lon="6.00814">
        <ele>256</ele>
        <time>2017-01-08T14:41:48Z</time>
      </trkpt>
      <trkpt lat="43.55733" lon="6.00815">
        <ele>256</ele>
        <time>2017-01-08T14:48:26Z</time>
      </trkpt>
      <trkpt lat="43.55744" lon="6.00814">
        <ele>256.8</ele>
        <time>2017-01-08T14:48:34Z</time>
      </trkpt>
      <trkpt lat="43.55734" lon="6.00813">
        <ele>257</ele>
        <time>2017-01-08T14:49:16Z</time>
      </trkpt>
      <trkpt lat="43.55744" lon="6.00812">
        <ele>257.1</ele>
        <time>2017-01-08T14:49:33Z</time>
      </trkpt>
      <trkpt lat="43.55733" lon="6.00811">
        <ele>257.1</ele>
        <time>2017-01-08T14:50:03Z</time>
      </trkpt>
      <trkpt lat="43.55734" lon="6.00824">
        <ele>257</ele>
        <time>2017-01-08T14:50:18Z</time>
      </trkpt>
      <trkpt lat="43.55739" lon="6.0081">
        <ele>257</ele>
        <time>2017-01-08T14:50:57Z</time>
      </trkpt>
      <trkpt lat="43.55739" lon="6.00797">
        <ele>257.8</ele>
        <time>2017-01-08T14:51:05Z</time>
      </trkpt>
      <trkpt lat="43.55736" lon="6.00785">
        <ele>258.1</ele>
        <time>2017-01-08T14:51:17Z</time>
      </trkpt>
      <trkpt lat="43.55726" lon="6.00779">
        <ele>258.1</ele>
        <time>2017-01-08T14:51:32Z</time>
      </trkpt>
      <trkpt lat="43.55734" lon="6.00788">
        <ele>258.1</ele>
        <time>2017-01-08T14:51:52Z</time>
      </trkpt>
      <trkpt lat="43.55729" lon="6.00777">
        <ele>258.3</ele>
        <time>2017-01-08T14:52:10Z</time>
      </trkpt>
      <trkpt lat="43.5573" lon="6.00765">
        <ele>258.4</ele>
        <time>2017-01-08T14:52:19Z</time>
      </trkpt>
      <trkpt lat="43.55732" lon="6.00752">
        <ele>258.5</ele>
        <time>2017-01-08T14:52:27Z</time>
      </trkpt>
      <trkpt lat="43.55743" lon="6.00752">
        <ele>258.7</ele>
        <time>2017-01-08T14:52:38Z</time>
      </trkpt>
      <trkpt lat="43.55748" lon="6.0074">
        <ele>258.8</ele>
        <time>2017-01-08T14:52:49Z</time>
      </trkpt>
      <trkpt lat="43.55749" lon="6.00726">
        <ele>258.9</ele>
        <time>2017-01-08T14:52:59Z</time>
      </trkpt>
      <trkpt lat="43.55751" lon="6.00714">
        <ele>259.1</ele>
        <time>2017-01-08T14:53:08Z</time>
      </trkpt>
      <trkpt lat="43.55754" lon="6.00702">
        <ele>259.3</ele>
        <time>2017-01-08T14:53:17Z</time>
      </trkpt>
      <trkpt lat="43.55753" lon="6.0069">
        <ele>259.9</ele>
        <time>2017-01-08T14:53:26Z</time>
      </trkpt>
      <trkpt lat="43.55752" lon="6.00676">
        <ele>260</ele>
        <time>2017-01-08T14:53:35Z</time>
      </trkpt>
      <trkpt lat="43.55755" lon="6.00663">
        <ele>260.2</ele>
        <time>2017-01-08T14:53:48Z</time>
      </trkpt>
      <trkpt lat="43.55749" lon="6.00654">
        <ele>260.1</ele>
        <time>2017-01-08T14:53:54Z</time>
      </trkpt>
      <trkpt lat="43.55742" lon="6.00644">
        <ele>260</ele>
        <time>2017-01-08T14:54:01Z</time>
      </trkpt>
      <trkpt lat="43.55741" lon="6.00632">
        <ele>259.9</ele>
        <time>2017-01-08T14:54:10Z</time>
      </trkpt>
      <trkpt lat="43.55734" lon="6.00623">
        <ele>259.3</ele>
        <time>2017-01-08T14:54:31Z</time>
      </trkpt>
      <trkpt lat="43.55738" lon="6.00611">
        <ele>258.8</ele>
        <time>2017-01-08T14:55:07Z</time>
      </trkpt>
      <trkpt lat="43.55748" lon="6.00605">
        <ele>258.9</ele>
        <time>2017-01-08T14:55:15Z</time>
      </trkpt>
      <trkpt lat="43.55756" lon="6.006">
        <ele>259.1</ele>
        <time>2017-01-08T14:55:22Z</time>
      </trkpt>
      <trkpt lat="43.55766" lon="6.00597">
        <ele>259.3</ele>
        <time>2017-01-08T14:55:30Z</time>
      </trkpt>
      <trkpt lat="43.55775" lon="6.00596">
        <ele>259.3</ele>
        <time>2017-01-08T14:55:40Z</time>
      </trkpt>
      <trkpt lat="43.55784" lon="6.00592">
        <ele>259.3</ele>
        <time>2017-01-08T14:55:48Z</time>
      </trkpt>
      <trkpt lat="43.55794" lon="6.00593">
        <ele>259.4</ele>
        <time>2017-01-08T14:55:56Z</time>
      </trkpt>
      <trkpt lat="43.55802" lon="6.00588">
        <ele>259.9</ele>
        <time>2017-01-08T14:56:08Z</time>
      </trkpt>
      <trkpt lat="43.55799" lon="6.00575">
        <ele>260</ele>
        <time>2017-01-08T14:56:17Z</time>
      </trkpt>
      <trkpt lat="43.55794" lon="6.00561">
        <ele>260</ele>
        <time>2017-01-08T14:56:24Z</time>
      </trkpt>
      <trkpt lat="43.55799" lon="6.0055">
        <ele>260.1</ele>
        <time>2017-01-08T14:56:34Z</time>
      </trkpt>
      <trkpt lat="43.55806" lon="6.00541">
        <ele>260</ele>
        <time>2017-01-08T14:56:45Z</time>
      </trkpt>
      <trkpt lat="43.55815" lon="6.00536">
        <ele>260</ele>
        <time>2017-01-08T14:56:53Z</time>
      </trkpt>
      <trkpt lat="43.55824" lon="6.0053">
        <ele>260</ele>
        <time>2017-01-08T14:56:58Z</time>
      </trkpt>
      <trkpt lat="43.55833" lon="6.00524">
        <ele>260</ele>
        <time>2017-01-08T14:57:05Z</time>
      </trkpt>
      <trkpt lat="43.55842" lon="6.00517">
        <ele>259.8</ele>
        <time>2017-01-08T14:57:16Z</time>
      </trkpt>
      <trkpt lat="43.55852" lon="6.00512">
        <ele>259.9</ele>
        <time>2017-01-08T14:57:23Z</time>
      </trkpt>
      <trkpt lat="43.5586" lon="6.00505">
        <ele>260</ele>
        <time>2017-01-08T14:57:28Z</time>
      </trkpt>
      <trkpt lat="43.55855" lon="6.00493">
        <ele>260.4</ele>
        <time>2017-01-08T14:57:45Z</time>
      </trkpt>
      <trkpt lat="43.55849" lon="6.00504">
        <ele>260.6</ele>
        <time>2017-01-08T14:58:03Z</time>
      </trkpt>
      <trkpt lat="43.55842" lon="6.00513">
        <ele>260.9</ele>
        <time>2017-01-08T14:58:15Z</time>
      </trkpt>
      <trkpt lat="43.55832" lon="6.00514">
        <ele>260.9</ele>
        <time>2017-01-08T14:58:21Z</time>
      </trkpt>
      <trkpt lat="43.55823" lon="6.00513">
        <ele>260.8</ele>
        <time>2017-01-08T14:58:27Z</time>
      </trkpt>
      <trkpt lat="43.55829" lon="6.00504">
        <ele>260.3</ele>
        <time>2017-01-08T14:59:02Z</time>
      </trkpt>
      <trkpt lat="43.55837" lon="6.00497">
        <ele>260.3</ele>
        <time>2017-01-08T14:59:11Z</time>
      </trkpt>
      <trkpt lat="43.55846" lon="6.00496">
        <ele>260.1</ele>
        <time>2017-01-08T14:59:23Z</time>
      </trkpt>
      <trkpt lat="43.55837" lon="6.00491">
        <ele>260.2</ele>
        <time>2017-01-08T15:00:11Z</time>
      </trkpt>
      <trkpt lat="43.55828" lon="6.00488">
        <ele>260.2</ele>
        <time>2017-01-08T15:00:16Z</time>
      </trkpt>
      <trkpt lat="43.55819" lon="6.00495">
        <ele>259.9</ele>
        <time>2017-01-08T15:00:26Z</time>
      </trkpt>
      <trkpt lat="43.55812" lon="6.00502">
        <ele>259.9</ele>
        <time>2017-01-08T15:00:31Z</time>
      </trkpt>
      <trkpt lat="43.55813" lon="6.00516">
        <ele>259.9</ele>
        <time>2017-01-08T15:00:39Z</time>
      </trkpt>
      <trkpt lat="43.55806" lon="6.00525">
        <ele>259.7</ele>
        <time>2017-01-08T15:00:51Z</time>
      </trkpt>
      <trkpt lat="43.55799" lon="6.00533">
        <ele>259</ele>
        <time>2017-01-08T15:01:06Z</time>
      </trkpt>
      <trkpt lat="43.55795" lon="6.00529">
        <ele>259</ele>
        <time>2017-01-08T15:01:43Z</time>
      </trkpt>
    </trkseg>
  </trk>
</gpx>